﻿<?xml version="1.0" encoding="UTF-8" standalone="no" ?>
<gpx xmlns="http://www.topografix.com/GPX/1/1" creator="CompeGPS" version="1.1" xmlns:xsi="http://www.w3.org/2001/XMLSchema-instance" xsi:schemaLocation="http://www.topografix.com/GPX/1/1 http://www.topografix.com/GPX/1/1/gpx.xsd http://www.garmin.com/xmlschemas/GpxExtensions/v3 http://www.garmin.com/xmlschemas/GpxExtensionsv3.xsd http://www.garmin.com/xmlschemas/TrackPointExtension/v1 http://www.garmin.com/xmlschemas/TrackPointExtensionv1.xsd" xmlns:gpxtpx="http://www.garmin.com/xmlschemas/TrackPointExtension/v1">
  <metadata>
    <link href="http://www.compegps.com">
      <text>CompeGPS TEAM, SL</text>
    </link>
    <time>2013-04-26T15:33:03Z</time>
    <bounds maxlat="42.731047" maxlon="1.982105" minlat="42.694002" minlon="1.964716"/>
  </metadata>
<wpt lat="42.727126" lon="1.964786">
<ele>1685</ele>
<name>Parking</name>
</wpt>
<wpt lat="42.731029" lon="1.979266">
<ele>1810</ele>
<name>Teleski de Regalecia </name>
</wpt>
<wpt lat="42.711079" lon="1.977021">
<ele>2170</ele>
<name>Col Coumeille de l_Ours</name>
</wpt>
<wpt lat="42.713260" lon="1.970853">
<ele>2364</ele>
<name>Pic du Tarbesou</name>
</wpt>
<wpt lat="42.694002" lon="1.969094">
<ele>2364</ele>
<name>Roc de Bragues</name>
</wpt>
  <trk>
    <name>Roc de Bragues - Tarbesou</name>
    <trkseg>
      <trkpt lat="42.727126" lon="1.964786">
        <ele>1684.8</ele>
        <time>2013-04-24T07:14:42Z</time>
      <name>Parking</name>
      </trkpt>
      <trkpt lat="42.727153" lon="1.964922">
        <ele>1686.3</ele>
        <time>2013-04-24T07:16:08Z</time>
      </trkpt>
      <trkpt lat="42.727168" lon="1.964928">
        <ele>1687.2</ele>
        <time>2013-04-24T07:19:35Z</time>
      </trkpt>
      <trkpt lat="42.727183" lon="1.965072">
        <ele>1686.3</ele>
        <time>2013-04-24T07:19:45Z</time>
      </trkpt>
      <trkpt lat="42.727240" lon="1.965170">
        <ele>1686.8</ele>
        <time>2013-04-24T07:19:54Z</time>
      </trkpt>
      <trkpt lat="42.727388" lon="1.965318">
        <ele>1735.4</ele>
        <time>2013-04-24T07:20:05Z</time>
      </trkpt>
      <trkpt lat="42.727478" lon="1.965461">
        <ele>1740.1</ele>
        <time>2013-04-24T07:20:16Z</time>
      </trkpt>
      <trkpt lat="42.727555" lon="1.965666">
        <ele>1744.1</ele>
        <time>2013-04-24T07:20:30Z</time>
      </trkpt>
      <trkpt lat="42.727636" lon="1.965888">
        <ele>1747.9</ele>
        <time>2013-04-24T07:20:40Z</time>
      </trkpt>
      <trkpt lat="42.727705" lon="1.966076">
        <ele>1749.5</ele>
        <time>2013-04-24T07:20:50Z</time>
      </trkpt>
      <trkpt lat="42.727756" lon="1.966270">
        <ele>1750.3</ele>
        <time>2013-04-24T07:21:00Z</time>
      </trkpt>
      <trkpt lat="42.727811" lon="1.966401">
        <ele>1752.1</ele>
        <time>2013-04-24T07:21:10Z</time>
      </trkpt>
      <trkpt lat="42.727867" lon="1.966590">
        <ele>1753.5</ele>
        <time>2013-04-24T07:21:21Z</time>
      </trkpt>
      <trkpt lat="42.727928" lon="1.966767">
        <ele>1755.6</ele>
        <time>2013-04-24T07:21:33Z</time>
      </trkpt>
      <trkpt lat="42.728026" lon="1.966955">
        <ele>1759.7</ele>
        <time>2013-04-24T07:22:31Z</time>
      </trkpt>
      <trkpt lat="42.728109" lon="1.967181">
        <ele>1762.9</ele>
        <time>2013-04-24T07:22:43Z</time>
      </trkpt>
      <trkpt lat="42.728179" lon="1.967419">
        <ele>1765.7</ele>
        <time>2013-04-24T07:22:57Z</time>
      </trkpt>
      <trkpt lat="42.728244" lon="1.967582">
        <ele>1768.1</ele>
        <time>2013-04-24T07:23:09Z</time>
      </trkpt>
      <trkpt lat="42.728428" lon="1.968054">
        <ele>1773.4</ele>
        <time>2013-04-24T07:24:40Z</time>
      </trkpt>
      <trkpt lat="42.728563" lon="1.968443">
        <ele>1777.7</ele>
        <time>2013-04-24T07:24:52Z</time>
      </trkpt>
      <trkpt lat="42.728701" lon="1.968806">
        <ele>1782.5</ele>
        <time>2013-04-24T07:25:04Z</time>
      </trkpt>
      <trkpt lat="42.728904" lon="1.969320">
        <ele>1788.3</ele>
        <time>2013-04-24T07:26:38Z</time>
      </trkpt>
      <trkpt lat="42.729088" lon="1.969701">
        <ele>1791.4</ele>
        <time>2013-04-24T07:26:49Z</time>
      </trkpt>
      <trkpt lat="42.729251" lon="1.970093">
        <ele>1791.9</ele>
        <time>2013-04-24T07:27:01Z</time>
      </trkpt>
      <trkpt lat="42.729433" lon="1.970595">
        <ele>1794.8</ele>
        <time>2013-04-24T07:28:16Z</time>
      </trkpt>
      <trkpt lat="42.729583" lon="1.970976">
        <ele>1798.1</ele>
        <time>2013-04-24T07:28:28Z</time>
      </trkpt>
      <trkpt lat="42.729740" lon="1.971378">
        <ele>1802.9</ele>
        <time>2013-04-24T07:29:38Z</time>
      </trkpt>
      <trkpt lat="42.729874" lon="1.971545">
        <ele>1808.1</ele>
        <time>2013-04-24T07:29:50Z</time>
      </trkpt>
      <trkpt lat="42.729909" lon="1.971639">
        <ele>1809.0</ele>
        <time>2013-04-24T07:30:02Z</time>
      </trkpt>
      <trkpt lat="42.729832" lon="1.971884">
        <ele>1806.7</ele>
        <time>2013-04-24T07:30:14Z</time>
      </trkpt>
      <trkpt lat="42.729859" lon="1.972192">
        <ele>1809.7</ele>
        <time>2013-04-24T07:30:26Z</time>
      </trkpt>
      <trkpt lat="42.729920" lon="1.972641">
        <ele>1814.8</ele>
        <time>2013-04-24T07:30:41Z</time>
      </trkpt>
      <trkpt lat="42.730020" lon="1.973058">
        <ele>1820.4</ele>
        <time>2013-04-24T07:30:54Z</time>
      </trkpt>
      <trkpt lat="42.730189" lon="1.973534">
        <ele>1831.3</ele>
        <time>2013-04-24T07:33:41Z</time>
      </trkpt>
      <trkpt lat="42.730277" lon="1.973873">
        <ele>1836.6</ele>
        <time>2013-04-24T07:33:51Z</time>
      </trkpt>
      <trkpt lat="42.730354" lon="1.974155">
        <ele>1841.6</ele>
        <time>2013-04-24T07:34:02Z</time>
      </trkpt>
      <trkpt lat="42.730400" lon="1.974473">
        <ele>1844.1</ele>
        <time>2013-04-24T07:34:13Z</time>
      </trkpt>
      <trkpt lat="42.730453" lon="1.974771">
        <ele>1847.2</ele>
        <time>2013-04-24T07:34:23Z</time>
      </trkpt>
      <trkpt lat="42.730442" lon="1.975047">
        <ele>1846.1</ele>
        <time>2013-04-24T07:34:34Z</time>
      </trkpt>
      <trkpt lat="42.730415" lon="1.975235">
        <ele>1842.8</ele>
        <time>2013-04-24T07:34:45Z</time>
      </trkpt>
      <trkpt lat="42.730442" lon="1.975582">
        <ele>1842.0</ele>
        <time>2013-04-24T07:36:03Z</time>
      </trkpt>
      <trkpt lat="42.730481" lon="1.975803">
        <ele>1842.8</ele>
        <time>2013-04-24T07:36:13Z</time>
      </trkpt>
      <trkpt lat="42.730498" lon="1.976044">
        <ele>1841.1</ele>
        <time>2013-04-24T07:36:23Z</time>
      </trkpt>
      <trkpt lat="42.730522" lon="1.976435">
        <ele>1838.1</ele>
        <time>2013-04-24T07:36:33Z</time>
      </trkpt>
      <trkpt lat="42.730570" lon="1.976657">
        <ele>1837.9</ele>
        <time>2013-04-24T07:36:43Z</time>
      </trkpt>
      <trkpt lat="42.730633" lon="1.976911">
        <ele>1795.9</ele>
        <time>2013-04-24T07:38:03Z</time>
      </trkpt>
      <trkpt lat="42.730673" lon="1.977038">
        <ele>1797.8</ele>
        <time>2013-04-24T07:38:13Z</time>
      </trkpt>
      <trkpt lat="42.730701" lon="1.977162">
        <ele>1797.3</ele>
        <time>2013-04-24T07:38:22Z</time>
      </trkpt>
      <trkpt lat="42.730733" lon="1.977275">
        <ele>1801.2</ele>
        <time>2013-04-24T07:38:32Z</time>
      </trkpt>
      <trkpt lat="42.730749" lon="1.977407">
        <ele>1797.3</ele>
        <time>2013-04-24T07:38:42Z</time>
      </trkpt>
      <trkpt lat="42.730783" lon="1.977533">
        <ele>1800.2</ele>
        <time>2013-04-24T07:38:52Z</time>
      </trkpt>
      <trkpt lat="42.730810" lon="1.977662">
        <ele>1800.7</ele>
        <time>2013-04-24T07:39:01Z</time>
      </trkpt>
      <trkpt lat="42.730840" lon="1.977784">
        <ele>1800.7</ele>
        <time>2013-04-24T07:39:11Z</time>
      </trkpt>
      <trkpt lat="42.730872" lon="1.977912">
        <ele>1801.7</ele>
        <time>2013-04-24T07:39:21Z</time>
      </trkpt>
      <trkpt lat="42.730897" lon="1.978052">
        <ele>1802.1</ele>
        <time>2013-04-24T07:39:31Z</time>
      </trkpt>
      <trkpt lat="42.730900" lon="1.978185">
        <ele>1803.1</ele>
        <time>2013-04-24T07:39:40Z</time>
      </trkpt>
      <trkpt lat="42.730903" lon="1.978324">
        <ele>1804.1</ele>
        <time>2013-04-24T07:39:50Z</time>
      </trkpt>
      <trkpt lat="42.730906" lon="1.978453">
        <ele>1806.0</ele>
        <time>2013-04-24T07:40:02Z</time>
      </trkpt>
      <trkpt lat="42.730928" lon="1.978578">
        <ele>1807.4</ele>
        <time>2013-04-24T07:40:15Z</time>
      </trkpt>
      <trkpt lat="42.730934" lon="1.978704">
        <ele>1809.3</ele>
        <time>2013-04-24T07:40:27Z</time>
      </trkpt>
      <trkpt lat="42.730956" lon="1.978835">
        <ele>1813.2</ele>
        <time>2013-04-24T07:40:41Z</time>
      </trkpt>
      <trkpt lat="42.731022" lon="1.978961">
        <ele>1829.2</ele>
        <time>2013-04-24T07:40:54Z</time>
      </trkpt>
      <trkpt lat="42.731047" lon="1.979128">
        <ele>1829.6</ele>
        <time>2013-04-24T07:47:52Z</time>
      </trkpt>
      <trkpt lat="42.731029" lon="1.979266">
        <ele>1829.2</ele>
        <time>2013-04-24T07:50:53Z</time>
        <name>Teleski de Regalecia </name>
      </trkpt>
      <trkpt lat="42.730996" lon="1.979447">
        <ele>1828.9</ele>
        <time>2013-04-24T07:52:48Z</time>
      </trkpt>
      <trkpt lat="42.730989" lon="1.979610">
        <ele>1829.5</ele>
        <time>2013-04-24T07:53:03Z</time>
      </trkpt>
      <trkpt lat="42.730975" lon="1.979855">
        <ele>1830.4</ele>
        <time>2013-04-24T07:53:21Z</time>
      </trkpt>
      <trkpt lat="42.730903" lon="1.980169">
        <ele>1831.3</ele>
        <time>2013-04-24T07:53:38Z</time>
      </trkpt>
      <trkpt lat="42.730820" lon="1.980272">
        <ele>1831.1</ele>
        <time>2013-04-24T07:53:50Z</time>
      </trkpt>
      <trkpt lat="42.730697" lon="1.980366">
        <ele>1834.1</ele>
        <time>2013-04-24T07:54:10Z</time>
      </trkpt>
      <trkpt lat="42.730546" lon="1.980523">
        <ele>1839.2</ele>
        <time>2013-04-24T07:56:15Z</time>
      </trkpt>
      <trkpt lat="42.730351" lon="1.980680">
        <ele>1845.8</ele>
        <time>2013-04-24T07:56:35Z</time>
      </trkpt>
      <trkpt lat="42.730192" lon="1.980970">
        <ele>1856.3</ele>
        <time>2013-04-24T07:56:56Z</time>
      </trkpt>
      <trkpt lat="42.729971" lon="1.981147">
        <ele>1866.9</ele>
        <time>2013-04-24T07:57:17Z</time>
      </trkpt>
      <trkpt lat="42.729682" lon="1.981248">
        <ele>1880.5</ele>
        <time>2013-04-24T07:59:51Z</time>
      </trkpt>
      <trkpt lat="42.729486" lon="1.981316">
        <ele>1889.0</ele>
        <time>2013-04-24T08:00:09Z</time>
      </trkpt>
      <trkpt lat="42.729040" lon="1.981371">
        <ele>1904.9</ele>
        <time>2013-04-24T08:03:43Z</time>
      </trkpt>
      <trkpt lat="42.728823" lon="1.981572">
        <ele>1913.8</ele>
        <time>2013-04-24T08:04:01Z</time>
      </trkpt>
      <trkpt lat="42.728623" lon="1.981655">
        <ele>1920.2</ele>
        <time>2013-04-24T08:04:17Z</time>
      </trkpt>
      <trkpt lat="42.728328" lon="1.981714">
        <ele>1928.8</ele>
        <time>2013-04-24T08:06:27Z</time>
      </trkpt>
      <trkpt lat="42.728111" lon="1.981727">
        <ele>1938.0</ele>
        <time>2013-04-24T08:06:49Z</time>
      </trkpt>
      <trkpt lat="42.727940" lon="1.981712">
        <ele>1945.1</ele>
        <time>2013-04-24T08:08:12Z</time>
      </trkpt>
      <trkpt lat="42.727841" lon="1.981727">
        <ele>1949.4</ele>
        <time>2013-04-24T08:08:26Z</time>
      </trkpt>
      <trkpt lat="42.727767" lon="1.981706">
        <ele>1982.4</ele>
        <time>2013-04-24T08:08:40Z</time>
      </trkpt>
      <trkpt lat="42.727645" lon="1.981767">
        <ele>1957.7</ele>
        <time>2013-04-24T08:08:52Z</time>
      </trkpt>
      <trkpt lat="42.727557" lon="1.981810">
        <ele>1961.3</ele>
        <time>2013-04-24T08:09:06Z</time>
      </trkpt>
      <trkpt lat="42.727448" lon="1.981820">
        <ele>1964.8</ele>
        <time>2013-04-24T08:09:20Z</time>
      </trkpt>
      <trkpt lat="42.727374" lon="1.981853">
        <ele>1966.3</ele>
        <time>2013-04-24T08:09:33Z</time>
      </trkpt>
      <trkpt lat="42.727251" lon="1.981944">
        <ele>1968.8</ele>
        <time>2013-04-24T08:09:48Z</time>
      </trkpt>
      <trkpt lat="42.727139" lon="1.981978">
        <ele>1971.2</ele>
        <time>2013-04-24T08:10:04Z</time>
      </trkpt>
      <trkpt lat="42.727030" lon="1.982035">
        <ele>1973.5</ele>
        <time>2013-04-24T08:10:19Z</time>
      </trkpt>
      <trkpt lat="42.726906" lon="1.982035">
        <ele>1976.2</ele>
        <time>2013-04-24T08:10:32Z</time>
      </trkpt>
      <trkpt lat="42.726780" lon="1.982001">
        <ele>1997.8</ele>
        <time>2013-04-24T08:18:41Z</time>
      </trkpt>
      <trkpt lat="42.726725" lon="1.981987">
        <ele>1996.3</ele>
        <time>2013-04-24T08:19:17Z</time>
      </trkpt>
      <trkpt lat="42.726647" lon="1.982014">
        <ele>1995.8</ele>
        <time>2013-04-24T08:20:18Z</time>
      </trkpt>
      <trkpt lat="42.726554" lon="1.982040">
        <ele>1997.3</ele>
        <time>2013-04-24T08:20:29Z</time>
      </trkpt>
      <trkpt lat="42.726465" lon="1.982076">
        <ele>1996.3</ele>
        <time>2013-04-24T08:20:38Z</time>
      </trkpt>
      <trkpt lat="42.726367" lon="1.982089">
        <ele>1998.7</ele>
        <time>2013-04-24T08:20:47Z</time>
      </trkpt>
      <trkpt lat="42.726272" lon="1.982090">
        <ele>1998.7</ele>
        <time>2013-04-24T08:20:56Z</time>
      </trkpt>
      <trkpt lat="42.726173" lon="1.982086">
        <ele>2000.2</ele>
        <time>2013-04-24T08:21:06Z</time>
      </trkpt>
      <trkpt lat="42.726073" lon="1.982083">
        <ele>2000.2</ele>
        <time>2013-04-24T08:21:16Z</time>
      </trkpt>
      <trkpt lat="42.725970" lon="1.982086">
        <ele>2000.6</ele>
        <time>2013-04-24T08:21:26Z</time>
      </trkpt>
      <trkpt lat="42.725876" lon="1.982080">
        <ele>2001.6</ele>
        <time>2013-04-24T08:21:36Z</time>
      </trkpt>
      <trkpt lat="42.725783" lon="1.982074">
        <ele>2000.6</ele>
        <time>2013-04-24T08:21:47Z</time>
      </trkpt>
      <trkpt lat="42.725681" lon="1.982090">
        <ele>2003.0</ele>
        <time>2013-04-24T08:21:59Z</time>
      </trkpt>
      <trkpt lat="42.725575" lon="1.982105">
        <ele>2003.5</ele>
        <time>2013-04-24T08:22:10Z</time>
      </trkpt>
      <trkpt lat="42.725482" lon="1.982088">
        <ele>2003.0</ele>
        <time>2013-04-24T08:22:21Z</time>
      </trkpt>
      <trkpt lat="42.725394" lon="1.982079">
        <ele>2005.9</ele>
        <time>2013-04-24T08:22:39Z</time>
      </trkpt>
      <trkpt lat="42.725303" lon="1.982054">
        <ele>2006.4</ele>
        <time>2013-04-24T08:22:50Z</time>
      </trkpt>
      <trkpt lat="42.725214" lon="1.982027">
        <ele>2007.4</ele>
        <time>2013-04-24T08:23:01Z</time>
      </trkpt>
      <trkpt lat="42.725117" lon="1.982019">
        <ele>2007.4</ele>
        <time>2013-04-24T08:23:12Z</time>
      </trkpt>
      <trkpt lat="42.725022" lon="1.982022">
        <ele>2009.8</ele>
        <time>2013-04-24T08:23:23Z</time>
      </trkpt>
      <trkpt lat="42.724933" lon="1.981955">
        <ele>2013.6</ele>
        <time>2013-04-24T08:23:34Z</time>
      </trkpt>
      <trkpt lat="42.724849" lon="1.981917">
        <ele>2010.7</ele>
        <time>2013-04-24T08:23:47Z</time>
      </trkpt>
      <trkpt lat="42.724754" lon="1.981922">
        <ele>2014.1</ele>
        <time>2013-04-24T08:23:59Z</time>
      </trkpt>
      <trkpt lat="42.724659" lon="1.981947">
        <ele>2014.1</ele>
        <time>2013-04-24T08:24:13Z</time>
      </trkpt>
      <trkpt lat="42.724570" lon="1.981975">
        <ele>2014.6</ele>
        <time>2013-04-24T08:24:25Z</time>
      </trkpt>
      <trkpt lat="42.724481" lon="1.982010">
        <ele>2016.5</ele>
        <time>2013-04-24T08:24:37Z</time>
      </trkpt>
      <trkpt lat="42.724394" lon="1.982012">
        <ele>2017.5</ele>
        <time>2013-04-24T08:24:50Z</time>
      </trkpt>
      <trkpt lat="42.724296" lon="1.982026">
        <ele>2014.6</ele>
        <time>2013-04-24T08:25:02Z</time>
      </trkpt>
      <trkpt lat="42.724201" lon="1.982040">
        <ele>2018.4</ele>
        <time>2013-04-24T08:25:13Z</time>
      </trkpt>
      <trkpt lat="42.724106" lon="1.982052">
        <ele>2019.4</ele>
        <time>2013-04-24T08:25:23Z</time>
      </trkpt>
      <trkpt lat="42.724011" lon="1.982045">
        <ele>2020.3</ele>
        <time>2013-04-24T08:25:33Z</time>
      </trkpt>
      <trkpt lat="42.723913" lon="1.982058">
        <ele>2023.2</ele>
        <time>2013-04-24T08:25:43Z</time>
      </trkpt>
      <trkpt lat="42.723828" lon="1.982031">
        <ele>2023.2</ele>
        <time>2013-04-24T08:25:54Z</time>
      </trkpt>
      <trkpt lat="42.723735" lon="1.981999">
        <ele>2023.2</ele>
        <time>2013-04-24T08:26:05Z</time>
      </trkpt>
      <trkpt lat="42.723632" lon="1.981995">
        <ele>2023.7</ele>
        <time>2013-04-24T08:26:16Z</time>
      </trkpt>
      <trkpt lat="42.723542" lon="1.981994">
        <ele>2023.7</ele>
        <time>2013-04-24T08:26:27Z</time>
      </trkpt>
      <trkpt lat="42.723446" lon="1.982015">
        <ele>2025.6</ele>
        <time>2013-04-24T08:26:39Z</time>
      </trkpt>
      <trkpt lat="42.723347" lon="1.982003">
        <ele>2027.6</ele>
        <time>2013-04-24T08:26:53Z</time>
      </trkpt>
      <trkpt lat="42.723259" lon="1.982013">
        <ele>2030.0</ele>
        <time>2013-04-24T08:27:07Z</time>
      </trkpt>
      <trkpt lat="42.723172" lon="1.982014">
        <ele>2032.4</ele>
        <time>2013-04-24T08:27:23Z</time>
      </trkpt>
      <trkpt lat="42.723089" lon="1.982010">
        <ele>2033.8</ele>
        <time>2013-04-24T08:27:41Z</time>
      </trkpt>
      <trkpt lat="42.723024" lon="1.981999">
        <ele>2034.3</ele>
        <time>2013-04-24T08:28:44Z</time>
      </trkpt>
      <trkpt lat="42.722930" lon="1.981990">
        <ele>2032.8</ele>
        <time>2013-04-24T08:29:03Z</time>
      </trkpt>
      <trkpt lat="42.722845" lon="1.981977">
        <ele>2044.4</ele>
        <time>2013-04-24T08:29:20Z</time>
      </trkpt>
      <trkpt lat="42.722775" lon="1.981962">
        <ele>2039.6</ele>
        <time>2013-04-24T08:29:36Z</time>
      </trkpt>
      <trkpt lat="42.722683" lon="1.981958">
        <ele>2040.1</ele>
        <time>2013-04-24T08:29:51Z</time>
      </trkpt>
      <trkpt lat="42.722592" lon="1.981938">
        <ele>2042.5</ele>
        <time>2013-04-24T08:30:06Z</time>
      </trkpt>
      <trkpt lat="42.722503" lon="1.981929">
        <ele>2043.4</ele>
        <time>2013-04-24T08:30:19Z</time>
      </trkpt>
      <trkpt lat="42.722411" lon="1.981923">
        <ele>2044.4</ele>
        <time>2013-04-24T08:30:31Z</time>
      </trkpt>
      <trkpt lat="42.722318" lon="1.981891">
        <ele>2044.4</ele>
        <time>2013-04-24T08:30:42Z</time>
      </trkpt>
      <trkpt lat="42.722223" lon="1.981887">
        <ele>2045.8</ele>
        <time>2013-04-24T08:30:54Z</time>
      </trkpt>
      <trkpt lat="42.722123" lon="1.981866">
        <ele>2046.3</ele>
        <time>2013-04-24T08:31:04Z</time>
      </trkpt>
      <trkpt lat="42.722034" lon="1.981838">
        <ele>2046.3</ele>
        <time>2013-04-24T08:31:14Z</time>
      </trkpt>
      <trkpt lat="42.721956" lon="1.981812">
        <ele>2046.8</ele>
        <time>2013-04-24T08:31:25Z</time>
      </trkpt>
      <trkpt lat="42.721864" lon="1.981786">
        <ele>2046.3</ele>
        <time>2013-04-24T08:31:36Z</time>
      </trkpt>
      <trkpt lat="42.721772" lon="1.981788">
        <ele>2043.9</ele>
        <time>2013-04-24T08:31:47Z</time>
      </trkpt>
      <trkpt lat="42.721663" lon="1.981841">
        <ele>2043.4</ele>
        <time>2013-04-24T08:31:58Z</time>
      </trkpt>
      <trkpt lat="42.721572" lon="1.981863">
        <ele>2044.9</ele>
        <time>2013-04-24T08:32:08Z</time>
      </trkpt>
      <trkpt lat="42.721484" lon="1.981892">
        <ele>2045.3</ele>
        <time>2013-04-24T08:32:19Z</time>
      </trkpt>
      <trkpt lat="42.721392" lon="1.981918">
        <ele>2043.4</ele>
        <time>2013-04-24T08:32:31Z</time>
      </trkpt>
      <trkpt lat="42.721296" lon="1.981932">
        <ele>2044.9</ele>
        <time>2013-04-24T08:32:45Z</time>
      </trkpt>
      <trkpt lat="42.721204" lon="1.981975">
        <ele>2046.8</ele>
        <time>2013-04-24T08:32:56Z</time>
      </trkpt>
      <trkpt lat="42.721113" lon="1.981993">
        <ele>2047.8</ele>
        <time>2013-04-24T08:33:06Z</time>
      </trkpt>
      <trkpt lat="42.721013" lon="1.982019">
        <ele>2049.2</ele>
        <time>2013-04-24T08:33:19Z</time>
      </trkpt>
      <trkpt lat="42.720935" lon="1.982041">
        <ele>2047.8</ele>
        <time>2013-04-24T08:33:33Z</time>
      </trkpt>
      <trkpt lat="42.720901" lon="1.981971">
        <ele>2046.8</ele>
        <time>2013-04-24T08:38:10Z</time>
      </trkpt>
      <trkpt lat="42.720801" lon="1.981970">
        <ele>2046.3</ele>
        <time>2013-04-24T08:38:23Z</time>
      </trkpt>
      <trkpt lat="42.720694" lon="1.981981">
        <ele>2046.8</ele>
        <time>2013-04-24T08:38:33Z</time>
      </trkpt>
      <trkpt lat="42.720594" lon="1.981980">
        <ele>2046.3</ele>
        <time>2013-04-24T08:38:43Z</time>
      </trkpt>
      <trkpt lat="42.720506" lon="1.981989">
        <ele>2044.4</ele>
        <time>2013-04-24T08:38:53Z</time>
      </trkpt>
      <trkpt lat="42.720421" lon="1.981957">
        <ele>2043.4</ele>
        <time>2013-04-24T08:39:02Z</time>
      </trkpt>
      <trkpt lat="42.720325" lon="1.981898">
        <ele>2042.5</ele>
        <time>2013-04-24T08:39:11Z</time>
      </trkpt>
      <trkpt lat="42.720226" lon="1.981879">
        <ele>2042.0</ele>
        <time>2013-04-24T08:39:20Z</time>
      </trkpt>
      <trkpt lat="42.720124" lon="1.981841">
        <ele>2040.5</ele>
        <time>2013-04-24T08:39:29Z</time>
      </trkpt>
      <trkpt lat="42.720024" lon="1.981814">
        <ele>2039.1</ele>
        <time>2013-04-24T08:39:38Z</time>
      </trkpt>
      <trkpt lat="42.719928" lon="1.981782">
        <ele>2036.7</ele>
        <time>2013-04-24T08:39:47Z</time>
      </trkpt>
      <trkpt lat="42.719837" lon="1.981741">
        <ele>2038.1</ele>
        <time>2013-04-24T08:39:56Z</time>
      </trkpt>
      <trkpt lat="42.719740" lon="1.981701">
        <ele>2037.7</ele>
        <time>2013-04-24T08:40:06Z</time>
      </trkpt>
      <trkpt lat="42.719658" lon="1.981643">
        <ele>2037.2</ele>
        <time>2013-04-24T08:40:15Z</time>
      </trkpt>
      <trkpt lat="42.719569" lon="1.981606">
        <ele>2037.2</ele>
        <time>2013-04-24T08:40:25Z</time>
      </trkpt>
      <trkpt lat="42.719484" lon="1.981582">
        <ele>2040.5</ele>
        <time>2013-04-24T08:40:36Z</time>
      </trkpt>
      <trkpt lat="42.719418" lon="1.981513">
        <ele>2041.5</ele>
        <time>2013-04-24T08:40:50Z</time>
      </trkpt>
      <trkpt lat="42.719351" lon="1.981450">
        <ele>2040.5</ele>
        <time>2013-04-24T08:41:02Z</time>
      </trkpt>
      <trkpt lat="42.719256" lon="1.981399">
        <ele>2041.0</ele>
        <time>2013-04-24T08:41:13Z</time>
      </trkpt>
      <trkpt lat="42.719175" lon="1.981323">
        <ele>2042.0</ele>
        <time>2013-04-24T08:41:24Z</time>
      </trkpt>
      <trkpt lat="42.719085" lon="1.981287">
        <ele>2040.1</ele>
        <time>2013-04-24T08:41:34Z</time>
      </trkpt>
      <trkpt lat="42.718997" lon="1.981237">
        <ele>2036.7</ele>
        <time>2013-04-24T08:41:44Z</time>
      </trkpt>
      <trkpt lat="42.718907" lon="1.981190">
        <ele>2035.7</ele>
        <time>2013-04-24T08:41:55Z</time>
      </trkpt>
      <trkpt lat="42.718819" lon="1.981136">
        <ele>2037.7</ele>
        <time>2013-04-24T08:42:05Z</time>
      </trkpt>
      <trkpt lat="42.718735" lon="1.981076">
        <ele>2037.7</ele>
        <time>2013-04-24T08:42:15Z</time>
      </trkpt>
      <trkpt lat="42.718639" lon="1.981038">
        <ele>2036.7</ele>
        <time>2013-04-24T08:42:26Z</time>
      </trkpt>
      <trkpt lat="42.718546" lon="1.980994">
        <ele>2036.2</ele>
        <time>2013-04-24T08:42:38Z</time>
      </trkpt>
      <trkpt lat="42.718452" lon="1.980935">
        <ele>2036.2</ele>
        <time>2013-04-24T08:42:50Z</time>
      </trkpt>
      <trkpt lat="42.718369" lon="1.980877">
        <ele>2036.2</ele>
        <time>2013-04-24T08:43:02Z</time>
      </trkpt>
      <trkpt lat="42.718282" lon="1.980808">
        <ele>2036.2</ele>
        <time>2013-04-24T08:43:13Z</time>
      </trkpt>
      <trkpt lat="42.718192" lon="1.980727">
        <ele>2037.7</ele>
        <time>2013-04-24T08:43:25Z</time>
      </trkpt>
      <trkpt lat="42.718111" lon="1.980661">
        <ele>2038.6</ele>
        <time>2013-04-24T08:43:38Z</time>
      </trkpt>
      <trkpt lat="42.718034" lon="1.980617">
        <ele>2040.1</ele>
        <time>2013-04-24T08:43:52Z</time>
      </trkpt>
      <trkpt lat="42.717944" lon="1.980561">
        <ele>2042.5</ele>
        <time>2013-04-24T08:44:06Z</time>
      </trkpt>
      <trkpt lat="42.717859" lon="1.980528">
        <ele>2044.9</ele>
        <time>2013-04-24T08:44:22Z</time>
      </trkpt>
      <trkpt lat="42.717768" lon="1.980491">
        <ele>2047.3</ele>
        <time>2013-04-24T08:44:40Z</time>
      </trkpt>
      <trkpt lat="42.717689" lon="1.980433">
        <ele>2050.6</ele>
        <time>2013-04-24T08:44:58Z</time>
      </trkpt>
      <trkpt lat="42.717618" lon="1.980352">
        <ele>2053.0</ele>
        <time>2013-04-24T08:45:16Z</time>
      </trkpt>
      <trkpt lat="42.717538" lon="1.980319">
        <ele>2055.0</ele>
        <time>2013-04-24T08:45:32Z</time>
      </trkpt>
      <trkpt lat="42.717456" lon="1.980300">
        <ele>2056.9</ele>
        <time>2013-04-24T08:45:45Z</time>
      </trkpt>
      <trkpt lat="42.717364" lon="1.980264">
        <ele>2057.8</ele>
        <time>2013-04-24T08:45:58Z</time>
      </trkpt>
      <trkpt lat="42.717353" lon="1.980256">
        <ele>2059.3</ele>
        <time>2013-04-24T08:47:38Z</time>
      </trkpt>
      <trkpt lat="42.717288" lon="1.980210">
        <ele>2058.3</ele>
        <time>2013-04-24T08:51:03Z</time>
      </trkpt>
      <trkpt lat="42.717267" lon="1.980138">
        <ele>2058.8</ele>
        <time>2013-04-24T08:51:26Z</time>
      </trkpt>
      <trkpt lat="42.717203" lon="1.980035">
        <ele>2059.3</ele>
        <time>2013-04-24T08:51:39Z</time>
      </trkpt>
      <trkpt lat="42.717151" lon="1.979921">
        <ele>2058.8</ele>
        <time>2013-04-24T08:51:50Z</time>
      </trkpt>
      <trkpt lat="42.717108" lon="1.979800">
        <ele>2059.3</ele>
        <time>2013-04-24T08:52:03Z</time>
      </trkpt>
      <trkpt lat="42.717037" lon="1.979674">
        <ele>2059.3</ele>
        <time>2013-04-24T08:52:17Z</time>
      </trkpt>
      <trkpt lat="42.716975" lon="1.979580">
        <ele>2060.7</ele>
        <time>2013-04-24T08:52:29Z</time>
      </trkpt>
      <trkpt lat="42.716925" lon="1.979462">
        <ele>2058.3</ele>
        <time>2013-04-24T08:52:42Z</time>
      </trkpt>
      <trkpt lat="42.716875" lon="1.979348">
        <ele>2057.4</ele>
        <time>2013-04-24T08:52:53Z</time>
      </trkpt>
      <trkpt lat="42.716815" lon="1.979240">
        <ele>2056.9</ele>
        <time>2013-04-24T08:53:03Z</time>
      </trkpt>
      <trkpt lat="42.716739" lon="1.979171">
        <ele>2057.8</ele>
        <time>2013-04-24T08:53:14Z</time>
      </trkpt>
      <trkpt lat="42.716656" lon="1.979194">
        <ele>2060.2</ele>
        <time>2013-04-24T08:53:28Z</time>
      </trkpt>
      <trkpt lat="42.716562" lon="1.979221">
        <ele>2061.2</ele>
        <time>2013-04-24T08:53:44Z</time>
      </trkpt>
      <trkpt lat="42.716471" lon="1.979262">
        <ele>2064.1</ele>
        <time>2013-04-24T08:54:00Z</time>
      </trkpt>
      <trkpt lat="42.716378" lon="1.979275">
        <ele>2066.5</ele>
        <time>2013-04-24T08:54:16Z</time>
      </trkpt>
      <trkpt lat="42.716292" lon="1.979289">
        <ele>2069.4</ele>
        <time>2013-04-24T08:54:31Z</time>
      </trkpt>
      <trkpt lat="42.716201" lon="1.979282">
        <ele>2072.3</ele>
        <time>2013-04-24T08:54:46Z</time>
      </trkpt>
      <trkpt lat="42.716109" lon="1.979306">
        <ele>2075.1</ele>
        <time>2013-04-24T08:55:03Z</time>
      </trkpt>
      <trkpt lat="42.716012" lon="1.979301">
        <ele>2078.5</ele>
        <time>2013-04-24T08:55:20Z</time>
      </trkpt>
      <trkpt lat="42.715919" lon="1.979252">
        <ele>2081.4</ele>
        <time>2013-04-24T08:55:36Z</time>
      </trkpt>
      <trkpt lat="42.715859" lon="1.979143">
        <ele>2082.4</ele>
        <time>2013-04-24T08:55:50Z</time>
      </trkpt>
      <trkpt lat="42.715808" lon="1.979056">
        <ele>2083.3</ele>
        <time>2013-04-24T08:56:02Z</time>
      </trkpt>
      <trkpt lat="42.715726" lon="1.978968">
        <ele>2082.4</ele>
        <time>2013-04-24T08:56:55Z</time>
      </trkpt>
      <trkpt lat="42.715648" lon="1.978945">
        <ele>2083.3</ele>
        <time>2013-04-24T08:57:11Z</time>
      </trkpt>
      <trkpt lat="42.715559" lon="1.978934">
        <ele>2083.3</ele>
        <time>2013-04-24T08:57:22Z</time>
      </trkpt>
      <trkpt lat="42.715466" lon="1.978910">
        <ele>2081.4</ele>
        <time>2013-04-24T08:57:32Z</time>
      </trkpt>
      <trkpt lat="42.715385" lon="1.978804">
        <ele>2081.9</ele>
        <time>2013-04-24T08:57:43Z</time>
      </trkpt>
      <trkpt lat="42.715304" lon="1.978727">
        <ele>2079.9</ele>
        <time>2013-04-24T08:57:54Z</time>
      </trkpt>
      <trkpt lat="42.715219" lon="1.978658">
        <ele>2076.1</ele>
        <time>2013-04-24T08:58:05Z</time>
      </trkpt>
      <trkpt lat="42.715110" lon="1.978651">
        <ele>2075.1</ele>
        <time>2013-04-24T08:58:16Z</time>
      </trkpt>
      <trkpt lat="42.715007" lon="1.978627">
        <ele>2076.6</ele>
        <time>2013-04-24T08:58:32Z</time>
      </trkpt>
      <trkpt lat="42.714914" lon="1.978577">
        <ele>2078.0</ele>
        <time>2013-04-24T08:58:46Z</time>
      </trkpt>
      <trkpt lat="42.714818" lon="1.978546">
        <ele>2081.4</ele>
        <time>2013-04-24T08:59:02Z</time>
      </trkpt>
      <trkpt lat="42.714732" lon="1.978517">
        <ele>2082.8</ele>
        <time>2013-04-24T08:59:18Z</time>
      </trkpt>
      <trkpt lat="42.714637" lon="1.978521">
        <ele>2085.2</ele>
        <time>2013-04-24T08:59:37Z</time>
      </trkpt>
      <trkpt lat="42.714534" lon="1.978532">
        <ele>2089.1</ele>
        <time>2013-04-24T08:59:58Z</time>
      </trkpt>
      <trkpt lat="42.714457" lon="1.978478">
        <ele>2092.0</ele>
        <time>2013-04-24T09:00:18Z</time>
      </trkpt>
      <trkpt lat="42.714407" lon="1.978342">
        <ele>2094.4</ele>
        <time>2013-04-24T09:00:40Z</time>
      </trkpt>
      <trkpt lat="42.714338" lon="1.978266">
        <ele>2098.2</ele>
        <time>2013-04-24T09:01:01Z</time>
      </trkpt>
      <trkpt lat="42.714236" lon="1.978260">
        <ele>2103.5</ele>
        <time>2013-04-24T09:01:34Z</time>
      </trkpt>
      <trkpt lat="42.714148" lon="1.978312">
        <ele>2107.8</ele>
        <time>2013-04-24T09:02:00Z</time>
      </trkpt>
      <trkpt lat="42.714073" lon="1.978365">
        <ele>2109.8</ele>
        <time>2013-04-24T09:02:24Z</time>
      </trkpt>
      <trkpt lat="42.713993" lon="1.978431">
        <ele>2111.7</ele>
        <time>2013-04-24T09:02:45Z</time>
      </trkpt>
      <trkpt lat="42.713895" lon="1.978499">
        <ele>2113.6</ele>
        <time>2013-04-24T09:03:08Z</time>
      </trkpt>
      <trkpt lat="42.713816" lon="1.978540">
        <ele>2115.0</ele>
        <time>2013-04-24T09:03:26Z</time>
      </trkpt>
      <trkpt lat="42.713730" lon="1.978565">
        <ele>2117.9</ele>
        <time>2013-04-24T09:03:46Z</time>
      </trkpt>
      <trkpt lat="42.713641" lon="1.978557">
        <ele>2119.4</ele>
        <time>2013-04-24T09:04:03Z</time>
      </trkpt>
      <trkpt lat="42.713563" lon="1.978529">
        <ele>2120.8</ele>
        <time>2013-04-24T09:04:22Z</time>
      </trkpt>
      <trkpt lat="42.713475" lon="1.978450">
        <ele>2122.7</ele>
        <time>2013-04-24T09:04:40Z</time>
      </trkpt>
      <trkpt lat="42.713389" lon="1.978413">
        <ele>2125.1</ele>
        <time>2013-04-24T09:04:57Z</time>
      </trkpt>
      <trkpt lat="42.713310" lon="1.978410">
        <ele>2127.1</ele>
        <time>2013-04-24T09:05:19Z</time>
      </trkpt>
      <trkpt lat="42.713228" lon="1.978383">
        <ele>2129.0</ele>
        <time>2013-04-24T09:05:37Z</time>
      </trkpt>
      <trkpt lat="42.713163" lon="1.978356">
        <ele>2130.9</ele>
        <time>2013-04-24T09:05:54Z</time>
      </trkpt>
      <trkpt lat="42.713079" lon="1.978298">
        <ele>2134.7</ele>
        <time>2013-04-24T09:06:16Z</time>
      </trkpt>
      <trkpt lat="42.712990" lon="1.978264">
        <ele>2140.0</ele>
        <time>2013-04-24T09:06:35Z</time>
      </trkpt>
      <trkpt lat="42.712925" lon="1.978190">
        <ele>2143.4</ele>
        <time>2013-04-24T09:06:53Z</time>
      </trkpt>
      <trkpt lat="42.712854" lon="1.978116">
        <ele>2146.3</ele>
        <time>2013-04-24T09:07:13Z</time>
      </trkpt>
      <trkpt lat="42.712717" lon="1.978077">
        <ele>2131.0</ele>
        <time>2013-04-24T09:07:32Z</time>
      </trkpt>
      <trkpt lat="42.712619" lon="1.977981">
        <ele>2137.3</ele>
        <time>2013-04-24T09:07:49Z</time>
      </trkpt>
      <trkpt lat="42.712504" lon="1.977936">
        <ele>2143.3</ele>
        <time>2013-04-24T09:08:09Z</time>
      </trkpt>
      <trkpt lat="42.712368" lon="1.977870">
        <ele>2146.3</ele>
        <time>2013-04-24T09:08:28Z</time>
      </trkpt>
      <trkpt lat="42.712225" lon="1.977741">
        <ele>2151.2</ele>
        <time>2013-04-24T09:08:48Z</time>
      </trkpt>
      <trkpt lat="42.711993" lon="1.977669">
        <ele>2154.3</ele>
        <time>2013-04-24T09:09:04Z</time>
      </trkpt>
      <trkpt lat="42.711609" lon="1.977435">
        <ele>2162.8</ele>
        <time>2013-04-24T09:11:21Z</time>
      </trkpt>
      <trkpt lat="42.711291" lon="1.977345">
        <ele>2164.3</ele>
        <time>2013-04-24T09:11:38Z</time>
      </trkpt>
      <trkpt lat="42.711132" lon="1.977183">
        <ele>2168.5</ele>
        <time>2013-04-24T09:11:54Z</time>
      </trkpt>
      <trkpt lat="42.711079" lon="1.977021">
        <ele>2172.7</ele>
        <time>2013-04-24T09:12:11Z</time>
        <name>Col Coumeille de l_Ours</name>
      </trkpt>
      <trkpt lat="42.711172" lon="1.976660">
        <ele>2183.7</ele>
        <time>2013-04-24T09:12:29Z</time>
      </trkpt>
      <trkpt lat="42.711265" lon="1.976534">
        <ele>2187.3</ele>
        <time>2013-04-24T09:12:47Z</time>
      </trkpt>
      <trkpt lat="42.711426" lon="1.976355">
        <ele>2192.6</ele>
        <time>2013-04-24T09:13:33Z</time>
      </trkpt>
      <trkpt lat="42.711499" lon="1.976250">
        <ele>2197.7</ele>
        <time>2013-04-24T09:17:13Z</time>
      </trkpt>
      <trkpt lat="42.711530" lon="1.976190">
        <ele>2198.7</ele>
        <time>2013-04-24T09:18:02Z</time>
      </trkpt>
      <trkpt lat="42.711582" lon="1.976096">
        <ele>2200.6</ele>
        <time>2013-04-24T09:18:20Z</time>
      </trkpt>
      <trkpt lat="42.711654" lon="1.976029">
        <ele>2203.0</ele>
        <time>2013-04-24T09:18:40Z</time>
      </trkpt>
      <trkpt lat="42.711701" lon="1.975916">
        <ele>2205.9</ele>
        <time>2013-04-24T09:18:58Z</time>
      </trkpt>
      <trkpt lat="42.711759" lon="1.975839">
        <ele>2207.8</ele>
        <time>2013-04-24T09:19:17Z</time>
      </trkpt>
      <trkpt lat="42.711809" lon="1.975737">
        <ele>2211.2</ele>
        <time>2013-04-24T09:19:37Z</time>
      </trkpt>
      <trkpt lat="42.711855" lon="1.975641">
        <ele>2212.6</ele>
        <time>2013-04-24T09:19:53Z</time>
      </trkpt>
      <trkpt lat="42.711936" lon="1.975578">
        <ele>2215.0</ele>
        <time>2013-04-24T09:20:10Z</time>
      </trkpt>
      <trkpt lat="42.711974" lon="1.975469">
        <ele>2216.9</ele>
        <time>2013-04-24T09:20:27Z</time>
      </trkpt>
      <trkpt lat="42.712010" lon="1.975355">
        <ele>2219.8</ele>
        <time>2013-04-24T09:20:43Z</time>
      </trkpt>
      <trkpt lat="42.712042" lon="1.975235">
        <ele>2221.7</ele>
        <time>2013-04-24T09:21:00Z</time>
      </trkpt>
      <trkpt lat="42.712088" lon="1.975130">
        <ele>2224.6</ele>
        <time>2013-04-24T09:21:20Z</time>
      </trkpt>
      <trkpt lat="42.712165" lon="1.975085">
        <ele>2227.0</ele>
        <time>2013-04-24T09:21:41Z</time>
      </trkpt>
      <trkpt lat="42.712232" lon="1.974970">
        <ele>2229.9</ele>
        <time>2013-04-24T09:21:59Z</time>
      </trkpt>
      <trkpt lat="42.712263" lon="1.974858">
        <ele>2231.4</ele>
        <time>2013-04-24T09:22:18Z</time>
      </trkpt>
      <trkpt lat="42.712300" lon="1.974750">
        <ele>2232.8</ele>
        <time>2013-04-24T09:22:36Z</time>
      </trkpt>
      <trkpt lat="42.712343" lon="1.974638">
        <ele>2234.2</ele>
        <time>2013-04-24T09:22:53Z</time>
      </trkpt>
      <trkpt lat="42.712362" lon="1.974506">
        <ele>2236.2</ele>
        <time>2013-04-24T09:23:07Z</time>
      </trkpt>
      <trkpt lat="42.712373" lon="1.974380">
        <ele>2237.1</ele>
        <time>2013-04-24T09:23:19Z</time>
      </trkpt>
      <trkpt lat="42.712398" lon="1.974239">
        <ele>2238.6</ele>
        <time>2013-04-24T09:23:32Z</time>
      </trkpt>
      <trkpt lat="42.712413" lon="1.974121">
        <ele>2240.0</ele>
        <time>2013-04-24T09:23:45Z</time>
      </trkpt>
      <trkpt lat="42.712421" lon="1.974012">
        <ele>2242.4</ele>
        <time>2013-04-24T09:24:04Z</time>
      </trkpt>
      <trkpt lat="42.712458" lon="1.973888">
        <ele>2243.9</ele>
        <time>2013-04-24T09:24:24Z</time>
      </trkpt>
      <trkpt lat="42.712474" lon="1.973782">
        <ele>2246.7</ele>
        <time>2013-04-24T09:24:51Z</time>
      </trkpt>
      <trkpt lat="42.712525" lon="1.973673">
        <ele>2249.6</ele>
        <time>2013-04-24T09:25:19Z</time>
      </trkpt>
      <trkpt lat="42.712527" lon="1.973554">
        <ele>2252.0</ele>
        <time>2013-04-24T09:25:39Z</time>
      </trkpt>
      <trkpt lat="42.712534" lon="1.973430">
        <ele>2254.4</ele>
        <time>2013-04-24T09:25:55Z</time>
      </trkpt>
      <trkpt lat="42.712573" lon="1.973331">
        <ele>2256.8</ele>
        <time>2013-04-24T09:26:15Z</time>
      </trkpt>
      <trkpt lat="42.712630" lon="1.973260">
        <ele>2259.2</ele>
        <time>2013-04-24T09:26:37Z</time>
      </trkpt>
      <trkpt lat="42.712676" lon="1.973189">
        <ele>2263.6</ele>
        <time>2013-04-24T09:27:14Z</time>
      </trkpt>
      <trkpt lat="42.712727" lon="1.973078">
        <ele>2266.9</ele>
        <time>2013-04-24T09:27:43Z</time>
      </trkpt>
      <trkpt lat="42.712768" lon="1.972984">
        <ele>2271.2</ele>
        <time>2013-04-24T09:28:18Z</time>
      </trkpt>
      <trkpt lat="42.712794" lon="1.972876">
        <ele>2274.1</ele>
        <time>2013-04-24T09:28:44Z</time>
      </trkpt>
      <trkpt lat="42.712799" lon="1.972913">
        <ele>2273.7</ele>
        <time>2013-04-24T09:32:01Z</time>
      </trkpt>
      <trkpt lat="42.712793" lon="1.972823">
        <ele>2275.1</ele>
        <time>2013-04-24T09:33:53Z</time>
      </trkpt>
      <trkpt lat="42.712787" lon="1.972703">
        <ele>2278.9</ele>
        <time>2013-04-24T09:34:12Z</time>
      </trkpt>
      <trkpt lat="42.712786" lon="1.972604">
        <ele>2283.3</ele>
        <time>2013-04-24T09:34:35Z</time>
      </trkpt>
      <trkpt lat="42.712765" lon="1.972476">
        <ele>2287.1</ele>
        <time>2013-04-24T09:34:57Z</time>
      </trkpt>
      <trkpt lat="42.712750" lon="1.972365">
        <ele>2291.4</ele>
        <time>2013-04-24T09:35:17Z</time>
      </trkpt>
      <trkpt lat="42.712839" lon="1.972183">
        <ele>2307.1</ele>
        <time>2013-04-24T09:35:38Z</time>
      </trkpt>
      <trkpt lat="42.712836" lon="1.972047">
        <ele>2311.5</ele>
        <time>2013-04-24T09:36:38Z</time>
      </trkpt>
      <trkpt lat="42.712863" lon="1.971883">
        <ele>2317.3</ele>
        <time>2013-04-24T09:36:59Z</time>
      </trkpt>
      <trkpt lat="42.712943" lon="1.971692">
        <ele>2323.6</ele>
        <time>2013-04-24T09:37:18Z</time>
      </trkpt>
      <trkpt lat="42.713023" lon="1.971601">
        <ele>2325.8</ele>
        <time>2013-04-24T09:37:38Z</time>
      </trkpt>
      <trkpt lat="42.713090" lon="1.971410">
        <ele>2329.4</ele>
        <time>2013-04-24T09:40:17Z</time>
      </trkpt>
      <trkpt lat="42.713170" lon="1.971291">
        <ele>2331.9</ele>
        <time>2013-04-24T09:40:42Z</time>
      </trkpt>
      <trkpt lat="42.713244" lon="1.971170">
        <ele>2334.5</ele>
        <time>2013-04-24T09:46:22Z</time>
      </trkpt>
      <trkpt lat="42.713260" lon="1.971102">
        <ele>2336.2</ele>
        <time>2013-04-24T09:46:54Z</time>
      </trkpt>
      <trkpt lat="42.713260" lon="1.970853">
        <ele>2341.1</ele>
        <time>2013-04-24T09:48:04Z</time>
        <name>Pic du Tarbesou</name>
      </trkpt>
      <trkpt lat="42.713324" lon="1.970687">
        <ele>2338.5</ele>
        <time>2013-04-24T09:48:29Z</time>
      </trkpt>
      <trkpt lat="42.713359" lon="1.970516">
        <ele>2334.3</ele>
        <time>2013-04-24T09:49:33Z</time>
      </trkpt>
      <trkpt lat="42.713364" lon="1.970352">
        <ele>2330.8</ele>
        <time>2013-04-24T09:50:01Z</time>
      </trkpt>
      <trkpt lat="42.713347" lon="1.970231">
        <ele>2328.5</ele>
        <time>2013-04-24T09:51:52Z</time>
      </trkpt>
      <trkpt lat="42.713349" lon="1.970136">
        <ele>2326.5</ele>
        <time>2013-04-24T09:52:15Z</time>
      </trkpt>
      <trkpt lat="42.713347" lon="1.969996">
        <ele>2323.1</ele>
        <time>2013-04-24T09:52:35Z</time>
      </trkpt>
      <trkpt lat="42.713309" lon="1.969884">
        <ele>2318.0</ele>
        <time>2013-04-24T09:53:11Z</time>
      </trkpt>
      <trkpt lat="42.713277" lon="1.969763">
        <ele>2311.4</ele>
        <time>2013-04-24T09:54:38Z</time>
      </trkpt>
      <trkpt lat="42.713261" lon="1.969625">
        <ele>2305.1</ele>
        <time>2013-04-24T09:54:47Z</time>
      </trkpt>
      <trkpt lat="42.713232" lon="1.969533">
        <ele>2300.6</ele>
        <time>2013-04-24T09:54:57Z</time>
      </trkpt>
      <trkpt lat="42.713196" lon="1.969439">
        <ele>2296.2</ele>
        <time>2013-04-24T09:56:27Z</time>
      </trkpt>
      <trkpt lat="42.713164" lon="1.969339">
        <ele>2291.3</ele>
        <time>2013-04-24T09:56:36Z</time>
      </trkpt>
      <trkpt lat="42.713157" lon="1.969228">
        <ele>2286.1</ele>
        <time>2013-04-24T09:56:53Z</time>
      </trkpt>
      <trkpt lat="42.713119" lon="1.969129">
        <ele>2281.7</ele>
        <time>2013-04-24T09:57:01Z</time>
      </trkpt>
      <trkpt lat="42.713087" lon="1.969022">
        <ele>2276.3</ele>
        <time>2013-04-24T09:57:09Z</time>
      </trkpt>
      <trkpt lat="42.713040" lon="1.968886">
        <ele>2269.2</ele>
        <time>2013-04-24T09:57:17Z</time>
      </trkpt>
      <trkpt lat="42.712978" lon="1.968794">
        <ele>2265.0</ele>
        <time>2013-04-24T09:57:26Z</time>
      </trkpt>
      <trkpt lat="42.712905" lon="1.968698">
        <ele>2261.1</ele>
        <time>2013-04-24T09:57:35Z</time>
      </trkpt>
      <trkpt lat="42.712835" lon="1.968603">
        <ele>2256.8</ele>
        <time>2013-04-24T09:58:19Z</time>
      </trkpt>
      <trkpt lat="42.712756" lon="1.968514">
        <ele>2254.2</ele>
        <time>2013-04-24T09:58:30Z</time>
      </trkpt>
      <trkpt lat="42.712686" lon="1.968389">
        <ele>2249.4</ele>
        <time>2013-04-24T09:58:47Z</time>
      </trkpt>
      <trkpt lat="42.712589" lon="1.968290">
        <ele>2246.4</ele>
        <time>2013-04-24T09:58:57Z</time>
      </trkpt>
      <trkpt lat="42.712535" lon="1.968205">
        <ele>2244.0</ele>
        <time>2013-04-24T09:59:06Z</time>
      </trkpt>
      <trkpt lat="42.712446" lon="1.968058">
        <ele>2267.9</ele>
        <time>2013-04-24T09:59:16Z</time>
      </trkpt>
      <trkpt lat="42.712393" lon="1.967977">
        <ele>2268.4</ele>
        <time>2013-04-24T09:59:32Z</time>
      </trkpt>
      <trkpt lat="42.712378" lon="1.967950">
        <ele>2266.0</ele>
        <time>2013-04-24T10:02:03Z</time>
      </trkpt>
      <trkpt lat="42.712383" lon="1.967944">
        <ele>2264.5</ele>
        <time>2013-04-24T10:09:54Z</time>
      </trkpt>
      <trkpt lat="42.712347" lon="1.967888">
        <ele>2263.1</ele>
        <time>2013-04-24T10:10:46Z</time>
      </trkpt>
      <trkpt lat="42.712290" lon="1.967807">
        <ele>2261.6</ele>
        <time>2013-04-24T10:11:01Z</time>
      </trkpt>
      <trkpt lat="42.712231" lon="1.967757">
        <ele>2257.3</ele>
        <time>2013-04-24T10:11:16Z</time>
      </trkpt>
      <trkpt lat="42.712199" lon="1.967627">
        <ele>2252.5</ele>
        <time>2013-04-24T10:11:32Z</time>
      </trkpt>
      <trkpt lat="42.712115" lon="1.967596">
        <ele>2249.1</ele>
        <time>2013-04-24T10:11:42Z</time>
      </trkpt>
      <trkpt lat="42.712032" lon="1.967561">
        <ele>2247.7</ele>
        <time>2013-04-24T10:11:53Z</time>
      </trkpt>
      <trkpt lat="42.711924" lon="1.967554">
        <ele>2244.8</ele>
        <time>2013-04-24T10:12:05Z</time>
      </trkpt>
      <trkpt lat="42.711833" lon="1.967547">
        <ele>2241.0</ele>
        <time>2013-04-24T10:12:15Z</time>
      </trkpt>
      <trkpt lat="42.711741" lon="1.967547">
        <ele>2236.6</ele>
        <time>2013-04-24T10:12:31Z</time>
      </trkpt>
      <trkpt lat="42.711668" lon="1.967582">
        <ele>2233.8</ele>
        <time>2013-04-24T10:12:43Z</time>
      </trkpt>
      <trkpt lat="42.711572" lon="1.967573">
        <ele>2229.4</ele>
        <time>2013-04-24T10:12:57Z</time>
      </trkpt>
      <trkpt lat="42.711526" lon="1.967505">
        <ele>2226.6</ele>
        <time>2013-04-24T10:13:31Z</time>
      </trkpt>
      <trkpt lat="42.711454" lon="1.967429">
        <ele>2225.1</ele>
        <time>2013-04-24T10:13:41Z</time>
      </trkpt>
      <trkpt lat="42.711372" lon="1.967354">
        <ele>2219.3</ele>
        <time>2013-04-24T10:13:49Z</time>
      </trkpt>
      <trkpt lat="42.711298" lon="1.967278">
        <ele>2216.5</ele>
        <time>2013-04-24T10:13:57Z</time>
      </trkpt>
      <trkpt lat="42.711218" lon="1.967213">
        <ele>2216.0</ele>
        <time>2013-04-24T10:14:06Z</time>
      </trkpt>
      <trkpt lat="42.711123" lon="1.967161">
        <ele>2213.1</ele>
        <time>2013-04-24T10:14:15Z</time>
      </trkpt>
      <trkpt lat="42.711040" lon="1.967128">
        <ele>2210.7</ele>
        <time>2013-04-24T10:14:24Z</time>
      </trkpt>
      <trkpt lat="42.710956" lon="1.967077">
        <ele>2209.2</ele>
        <time>2013-04-24T10:14:36Z</time>
      </trkpt>
      <trkpt lat="42.710873" lon="1.967044">
        <ele>2206.4</ele>
        <time>2013-04-24T10:14:46Z</time>
      </trkpt>
      <trkpt lat="42.710797" lon="1.967041">
        <ele>2203.0</ele>
        <time>2013-04-24T10:15:00Z</time>
      </trkpt>
      <trkpt lat="42.710710" lon="1.967033">
        <ele>2198.7</ele>
        <time>2013-04-24T10:15:13Z</time>
      </trkpt>
      <trkpt lat="42.710641" lon="1.966942">
        <ele>2197.2</ele>
        <time>2013-04-24T10:15:26Z</time>
      </trkpt>
      <trkpt lat="42.710557" lon="1.966893">
        <ele>2193.9</ele>
        <time>2013-04-24T10:15:36Z</time>
      </trkpt>
      <trkpt lat="42.710462" lon="1.966837">
        <ele>2192.9</ele>
        <time>2013-04-24T10:15:45Z</time>
      </trkpt>
      <trkpt lat="42.710383" lon="1.966782">
        <ele>2191.0</ele>
        <time>2013-04-24T10:15:55Z</time>
      </trkpt>
      <trkpt lat="42.710290" lon="1.966742">
        <ele>2187.1</ele>
        <time>2013-04-24T10:16:06Z</time>
      </trkpt>
      <trkpt lat="42.710217" lon="1.966677">
        <ele>2185.7</ele>
        <time>2013-04-24T10:16:18Z</time>
      </trkpt>
      <trkpt lat="42.710136" lon="1.966700">
        <ele>2181.9</ele>
        <time>2013-04-24T10:16:30Z</time>
      </trkpt>
      <trkpt lat="42.710040" lon="1.966687">
        <ele>2179.9</ele>
        <time>2013-04-24T10:16:50Z</time>
      </trkpt>
      <trkpt lat="42.709950" lon="1.966631">
        <ele>2177.5</ele>
        <time>2013-04-24T10:17:01Z</time>
      </trkpt>
      <trkpt lat="42.709865" lon="1.966580">
        <ele>2174.6</ele>
        <time>2013-04-24T10:17:12Z</time>
      </trkpt>
      <trkpt lat="42.709777" lon="1.966545">
        <ele>2172.2</ele>
        <time>2013-04-24T10:17:23Z</time>
      </trkpt>
      <trkpt lat="42.709690" lon="1.966493">
        <ele>2168.9</ele>
        <time>2013-04-24T10:17:33Z</time>
      </trkpt>
      <trkpt lat="42.709652" lon="1.966419">
        <ele>2167.9</ele>
        <time>2013-04-24T10:18:38Z</time>
      </trkpt>
      <trkpt lat="42.709575" lon="1.966392">
        <ele>2166.0</ele>
        <time>2013-04-24T10:18:52Z</time>
      </trkpt>
      <trkpt lat="42.709496" lon="1.966303">
        <ele>2162.6</ele>
        <time>2013-04-24T10:19:06Z</time>
      </trkpt>
      <trkpt lat="42.709414" lon="1.966266">
        <ele>2160.7</ele>
        <time>2013-04-24T10:19:16Z</time>
      </trkpt>
      <trkpt lat="42.709361" lon="1.966244">
        <ele>2160.2</ele>
        <time>2013-04-24T10:20:10Z</time>
      </trkpt>
      <trkpt lat="42.709282" lon="1.966222">
        <ele>2159.3</ele>
        <time>2013-04-24T10:20:40Z</time>
      </trkpt>
      <trkpt lat="42.709186" lon="1.966210">
        <ele>2157.3</ele>
        <time>2013-04-24T10:20:49Z</time>
      </trkpt>
      <trkpt lat="42.709093" lon="1.966240">
        <ele>2156.9</ele>
        <time>2013-04-24T10:20:58Z</time>
      </trkpt>
      <trkpt lat="42.709005" lon="1.966275">
        <ele>2154.9</ele>
        <time>2013-04-24T10:21:07Z</time>
      </trkpt>
      <trkpt lat="42.708920" lon="1.966309">
        <ele>2152.5</ele>
        <time>2013-04-24T10:21:17Z</time>
      </trkpt>
      <trkpt lat="42.708831" lon="1.966353">
        <ele>2150.1</ele>
        <time>2013-04-24T10:21:27Z</time>
      </trkpt>
      <trkpt lat="42.708750" lon="1.966404">
        <ele>2149.2</ele>
        <time>2013-04-24T10:21:36Z</time>
      </trkpt>
      <trkpt lat="42.708650" lon="1.966449">
        <ele>2147.2</ele>
        <time>2013-04-24T10:21:46Z</time>
      </trkpt>
      <trkpt lat="42.708560" lon="1.966508">
        <ele>2145.3</ele>
        <time>2013-04-24T10:21:55Z</time>
      </trkpt>
      <trkpt lat="42.708477" lon="1.966541">
        <ele>2142.9</ele>
        <time>2013-04-24T10:22:03Z</time>
      </trkpt>
      <trkpt lat="42.708380" lon="1.966581">
        <ele>2141.9</ele>
        <time>2013-04-24T10:22:12Z</time>
      </trkpt>
      <trkpt lat="42.708292" lon="1.966625">
        <ele>2139.6</ele>
        <time>2013-04-24T10:22:19Z</time>
      </trkpt>
      <trkpt lat="42.708209" lon="1.966668">
        <ele>2138.6</ele>
        <time>2013-04-24T10:22:26Z</time>
      </trkpt>
      <trkpt lat="42.708113" lon="1.966708">
        <ele>2137.1</ele>
        <time>2013-04-24T10:22:34Z</time>
      </trkpt>
      <trkpt lat="42.708017" lon="1.966723">
        <ele>2135.7</ele>
        <time>2013-04-24T10:22:42Z</time>
      </trkpt>
      <trkpt lat="42.707935" lon="1.966756">
        <ele>2134.3</ele>
        <time>2013-04-24T10:22:52Z</time>
      </trkpt>
      <trkpt lat="42.707845" lon="1.966798">
        <ele>2131.9</ele>
        <time>2013-04-24T10:23:01Z</time>
      </trkpt>
      <trkpt lat="42.707750" lon="1.966805">
        <ele>2130.4</ele>
        <time>2013-04-24T10:23:09Z</time>
      </trkpt>
      <trkpt lat="42.707659" lon="1.966811">
        <ele>2129.0</ele>
        <time>2013-04-24T10:23:20Z</time>
      </trkpt>
      <trkpt lat="42.707561" lon="1.966831">
        <ele>2128.0</ele>
        <time>2013-04-24T10:24:39Z</time>
      </trkpt>
      <trkpt lat="42.707471" lon="1.966875">
        <ele>2126.6</ele>
        <time>2013-04-24T10:24:49Z</time>
      </trkpt>
      <trkpt lat="42.707380" lon="1.966887">
        <ele>2124.6</ele>
        <time>2013-04-24T10:24:59Z</time>
      </trkpt>
      <trkpt lat="42.707284" lon="1.966907">
        <ele>2126.6</ele>
        <time>2013-04-24T10:25:09Z</time>
      </trkpt>
      <trkpt lat="42.707189" lon="1.966918">
        <ele>2123.7</ele>
        <time>2013-04-24T10:25:18Z</time>
      </trkpt>
      <trkpt lat="42.707104" lon="1.966915">
        <ele>2122.2</ele>
        <time>2013-04-24T10:25:28Z</time>
      </trkpt>
      <trkpt lat="42.707012" lon="1.966948">
        <ele>2121.3</ele>
        <time>2013-04-24T10:26:29Z</time>
      </trkpt>
      <trkpt lat="42.706917" lon="1.966967">
        <ele>2120.3</ele>
        <time>2013-04-24T10:26:38Z</time>
      </trkpt>
      <trkpt lat="42.706820" lon="1.966985">
        <ele>2120.3</ele>
        <time>2013-04-24T10:26:47Z</time>
      </trkpt>
      <trkpt lat="42.706710" lon="1.966983">
        <ele>2122.2</ele>
        <time>2013-04-24T10:26:55Z</time>
      </trkpt>
      <trkpt lat="42.706609" lon="1.966988">
        <ele>2121.3</ele>
        <time>2013-04-24T10:27:02Z</time>
      </trkpt>
      <trkpt lat="42.706521" lon="1.966994">
        <ele>2122.7</ele>
        <time>2013-04-24T10:27:09Z</time>
      </trkpt>
      <trkpt lat="42.706427" lon="1.966992">
        <ele>2122.2</ele>
        <time>2013-04-24T10:27:16Z</time>
      </trkpt>
      <trkpt lat="42.706335" lon="1.967010">
        <ele>2124.2</ele>
        <time>2013-04-24T10:27:23Z</time>
      </trkpt>
      <trkpt lat="42.706239" lon="1.967003">
        <ele>2125.6</ele>
        <time>2013-04-24T10:27:32Z</time>
      </trkpt>
      <trkpt lat="42.706138" lon="1.967012">
        <ele>2126.6</ele>
        <time>2013-04-24T10:27:41Z</time>
      </trkpt>
      <trkpt lat="42.706042" lon="1.966995">
        <ele>2128.0</ele>
        <time>2013-04-24T10:27:50Z</time>
      </trkpt>
      <trkpt lat="42.705949" lon="1.966964">
        <ele>2128.5</ele>
        <time>2013-04-24T10:27:59Z</time>
      </trkpt>
      <trkpt lat="42.705856" lon="1.966932">
        <ele>2130.4</ele>
        <time>2013-04-24T10:28:09Z</time>
      </trkpt>
      <trkpt lat="42.705776" lon="1.966875">
        <ele>2129.5</ele>
        <time>2013-04-24T10:28:19Z</time>
      </trkpt>
      <trkpt lat="42.705688" lon="1.966833">
        <ele>2129.9</ele>
        <time>2013-04-24T10:28:30Z</time>
      </trkpt>
      <trkpt lat="42.705595" lon="1.966792">
        <ele>2130.4</ele>
        <time>2013-04-24T10:28:40Z</time>
      </trkpt>
      <trkpt lat="42.705502" lon="1.966769">
        <ele>2131.4</ele>
        <time>2013-04-24T10:28:52Z</time>
      </trkpt>
      <trkpt lat="42.705408" lon="1.966730">
        <ele>2132.8</ele>
        <time>2013-04-24T10:29:05Z</time>
      </trkpt>
      <trkpt lat="42.705308" lon="1.966705">
        <ele>2134.7</ele>
        <time>2013-04-24T10:29:19Z</time>
      </trkpt>
      <trkpt lat="42.705217" lon="1.966685">
        <ele>2136.7</ele>
        <time>2013-04-24T10:29:33Z</time>
      </trkpt>
      <trkpt lat="42.705128" lon="1.966647">
        <ele>2138.6</ele>
        <time>2013-04-24T10:29:47Z</time>
      </trkpt>
      <trkpt lat="42.705046" lon="1.966684">
        <ele>2141.9</ele>
        <time>2013-04-24T10:30:05Z</time>
      </trkpt>
      <trkpt lat="42.704967" lon="1.966688">
        <ele>2125.7</ele>
        <time>2013-04-24T10:30:22Z</time>
      </trkpt>
      <trkpt lat="42.704892" lon="1.966666">
        <ele>2127.2</ele>
        <time>2013-04-24T10:30:40Z</time>
      </trkpt>
      <trkpt lat="42.704827" lon="1.966621">
        <ele>2127.4</ele>
        <time>2013-04-24T10:30:58Z</time>
      </trkpt>
      <trkpt lat="42.704745" lon="1.966639">
        <ele>2129.6</ele>
        <time>2013-04-24T10:31:14Z</time>
      </trkpt>
      <trkpt lat="42.704661" lon="1.966635">
        <ele>2131.0</ele>
        <time>2013-04-24T10:31:25Z</time>
      </trkpt>
      <trkpt lat="42.704570" lon="1.966627">
        <ele>2155.4</ele>
        <time>2013-04-24T10:31:43Z</time>
      </trkpt>
      <trkpt lat="42.704487" lon="1.966545">
        <ele>2156.4</ele>
        <time>2013-04-24T10:31:53Z</time>
      </trkpt>
      <trkpt lat="42.704391" lon="1.966494">
        <ele>2156.9</ele>
        <time>2013-04-24T10:32:05Z</time>
      </trkpt>
      <trkpt lat="42.704295" lon="1.966449">
        <ele>2157.8</ele>
        <time>2013-04-24T10:32:16Z</time>
      </trkpt>
      <trkpt lat="42.704197" lon="1.966408">
        <ele>2159.3</ele>
        <time>2013-04-24T10:32:28Z</time>
      </trkpt>
      <trkpt lat="42.704095" lon="1.966369">
        <ele>2159.7</ele>
        <time>2013-04-24T10:32:40Z</time>
      </trkpt>
      <trkpt lat="42.703999" lon="1.966352">
        <ele>2160.7</ele>
        <time>2013-04-24T10:32:52Z</time>
      </trkpt>
      <trkpt lat="42.703903" lon="1.966333">
        <ele>2161.2</ele>
        <time>2013-04-24T10:33:03Z</time>
      </trkpt>
      <trkpt lat="42.703794" lon="1.966296">
        <ele>2161.7</ele>
        <time>2013-04-24T10:33:16Z</time>
      </trkpt>
      <trkpt lat="42.703705" lon="1.966249">
        <ele>2161.7</ele>
        <time>2013-04-24T10:33:28Z</time>
      </trkpt>
      <trkpt lat="42.703620" lon="1.966205">
        <ele>2160.7</ele>
        <time>2013-04-24T10:33:40Z</time>
      </trkpt>
      <trkpt lat="42.703536" lon="1.966254">
        <ele>2160.2</ele>
        <time>2013-04-24T10:33:59Z</time>
      </trkpt>
      <trkpt lat="42.703502" lon="1.966266">
        <ele>2159.7</ele>
        <time>2013-04-24T10:36:53Z</time>
      </trkpt>
      <trkpt lat="42.703417" lon="1.966294">
        <ele>2158.3</ele>
        <time>2013-04-24T10:37:04Z</time>
      </trkpt>
      <trkpt lat="42.703327" lon="1.966361">
        <ele>2157.3</ele>
        <time>2013-04-24T10:37:14Z</time>
      </trkpt>
      <trkpt lat="42.703234" lon="1.966393">
        <ele>2155.9</ele>
        <time>2013-04-24T10:37:23Z</time>
      </trkpt>
      <trkpt lat="42.703136" lon="1.966391">
        <ele>2153.5</ele>
        <time>2013-04-24T10:37:35Z</time>
      </trkpt>
      <trkpt lat="42.703045" lon="1.966400">
        <ele>2153.0</ele>
        <time>2013-04-24T10:37:48Z</time>
      </trkpt>
      <trkpt lat="42.702951" lon="1.966390">
        <ele>2151.1</ele>
        <time>2013-04-24T10:37:57Z</time>
      </trkpt>
      <trkpt lat="42.702849" lon="1.966391">
        <ele>2149.6</ele>
        <time>2013-04-24T10:38:06Z</time>
      </trkpt>
      <trkpt lat="42.702749" lon="1.966370">
        <ele>2148.2</ele>
        <time>2013-04-24T10:38:16Z</time>
      </trkpt>
      <trkpt lat="42.702655" lon="1.966366">
        <ele>2146.8</ele>
        <time>2013-04-24T10:38:24Z</time>
      </trkpt>
      <trkpt lat="42.702563" lon="1.966370">
        <ele>2145.8</ele>
        <time>2013-04-24T10:38:33Z</time>
      </trkpt>
      <trkpt lat="42.702462" lon="1.966387">
        <ele>2145.8</ele>
        <time>2013-04-24T10:38:42Z</time>
      </trkpt>
      <trkpt lat="42.702368" lon="1.966394">
        <ele>2145.8</ele>
        <time>2013-04-24T10:38:51Z</time>
      </trkpt>
      <trkpt lat="42.702278" lon="1.966396">
        <ele>2145.8</ele>
        <time>2013-04-24T10:39:27Z</time>
      </trkpt>
      <trkpt lat="42.702184" lon="1.966391">
        <ele>2146.3</ele>
        <time>2013-04-24T10:39:36Z</time>
      </trkpt>
      <trkpt lat="42.702091" lon="1.966372">
        <ele>2146.3</ele>
        <time>2013-04-24T10:39:45Z</time>
      </trkpt>
      <trkpt lat="42.701992" lon="1.966353">
        <ele>2146.8</ele>
        <time>2013-04-24T10:39:55Z</time>
      </trkpt>
      <trkpt lat="42.701895" lon="1.966336">
        <ele>2147.7</ele>
        <time>2013-04-24T10:40:05Z</time>
      </trkpt>
      <trkpt lat="42.701800" lon="1.966328">
        <ele>2148.7</ele>
        <time>2013-04-24T10:40:15Z</time>
      </trkpt>
      <trkpt lat="42.701713" lon="1.966367">
        <ele>2148.2</ele>
        <time>2013-04-24T10:40:24Z</time>
      </trkpt>
      <trkpt lat="42.701619" lon="1.966371">
        <ele>2147.7</ele>
        <time>2013-04-24T10:40:33Z</time>
      </trkpt>
      <trkpt lat="42.701530" lon="1.966391">
        <ele>2146.3</ele>
        <time>2013-04-24T10:40:44Z</time>
      </trkpt>
      <trkpt lat="42.701434" lon="1.966409">
        <ele>2141.9</ele>
        <time>2013-04-24T10:40:53Z</time>
      </trkpt>
      <trkpt lat="42.701342" lon="1.966389">
        <ele>2138.6</ele>
        <time>2013-04-24T10:41:01Z</time>
      </trkpt>
      <trkpt lat="42.701255" lon="1.966320">
        <ele>2137.6</ele>
        <time>2013-04-24T10:41:11Z</time>
      </trkpt>
      <trkpt lat="42.701167" lon="1.966259">
        <ele>2136.7</ele>
        <time>2013-04-24T10:41:21Z</time>
      </trkpt>
      <trkpt lat="42.701115" lon="1.966226">
        <ele>2136.2</ele>
        <time>2013-04-24T10:41:39Z</time>
      </trkpt>
      <trkpt lat="42.701069" lon="1.966213">
        <ele>2135.7</ele>
        <time>2013-04-24T10:42:52Z</time>
      </trkpt>
      <trkpt lat="42.700977" lon="1.966233">
        <ele>2134.3</ele>
        <time>2013-04-24T10:43:01Z</time>
      </trkpt>
      <trkpt lat="42.700905" lon="1.966287">
        <ele>2133.3</ele>
        <time>2013-04-24T10:43:14Z</time>
      </trkpt>
      <trkpt lat="42.700820" lon="1.966344">
        <ele>2133.3</ele>
        <time>2013-04-24T10:43:23Z</time>
      </trkpt>
      <trkpt lat="42.700731" lon="1.966361">
        <ele>2132.8</ele>
        <time>2013-04-24T10:44:13Z</time>
      </trkpt>
      <trkpt lat="42.700631" lon="1.966402">
        <ele>2132.3</ele>
        <time>2013-04-24T10:44:25Z</time>
      </trkpt>
      <trkpt lat="42.700524" lon="1.966431">
        <ele>2131.4</ele>
        <time>2013-04-24T10:44:33Z</time>
      </trkpt>
      <trkpt lat="42.700424" lon="1.966442">
        <ele>2129.9</ele>
        <time>2013-04-24T10:44:40Z</time>
      </trkpt>
      <trkpt lat="42.700333" lon="1.966494">
        <ele>2130.9</ele>
        <time>2013-04-24T10:44:48Z</time>
      </trkpt>
      <trkpt lat="42.700243" lon="1.966544">
        <ele>2130.9</ele>
        <time>2013-04-24T10:44:57Z</time>
      </trkpt>
      <trkpt lat="42.700152" lon="1.966592">
        <ele>2131.9</ele>
        <time>2013-04-24T10:45:04Z</time>
      </trkpt>
      <trkpt lat="42.700052" lon="1.966615">
        <ele>2131.4</ele>
        <time>2013-04-24T10:45:11Z</time>
      </trkpt>
      <trkpt lat="42.699960" lon="1.966641">
        <ele>2132.8</ele>
        <time>2013-04-24T10:45:20Z</time>
      </trkpt>
      <trkpt lat="42.699859" lon="1.966673">
        <ele>2132.3</ele>
        <time>2013-04-24T10:45:29Z</time>
      </trkpt>
      <trkpt lat="42.699767" lon="1.966691">
        <ele>2132.3</ele>
        <time>2013-04-24T10:45:39Z</time>
      </trkpt>
      <trkpt lat="42.699669" lon="1.966706">
        <ele>2132.3</ele>
        <time>2013-04-24T10:45:50Z</time>
      </trkpt>
      <trkpt lat="42.699569" lon="1.966724">
        <ele>2134.3</ele>
        <time>2013-04-24T10:46:00Z</time>
      </trkpt>
      <trkpt lat="42.699482" lon="1.966796">
        <ele>2135.7</ele>
        <time>2013-04-24T10:46:11Z</time>
      </trkpt>
      <trkpt lat="42.699417" lon="1.966873">
        <ele>2135.7</ele>
        <time>2013-04-24T10:46:21Z</time>
      </trkpt>
      <trkpt lat="42.699329" lon="1.966911">
        <ele>2133.8</ele>
        <time>2013-04-24T10:46:29Z</time>
      </trkpt>
      <trkpt lat="42.699238" lon="1.966943">
        <ele>2131.9</ele>
        <time>2013-04-24T10:46:37Z</time>
      </trkpt>
      <trkpt lat="42.699178" lon="1.966960">
        <ele>2131.4</ele>
        <time>2013-04-24T10:47:16Z</time>
      </trkpt>
      <trkpt lat="42.699088" lon="1.966941">
        <ele>2130.4</ele>
        <time>2013-04-24T10:47:27Z</time>
      </trkpt>
      <trkpt lat="42.698997" lon="1.966959">
        <ele>2129.0</ele>
        <time>2013-04-24T10:47:37Z</time>
      </trkpt>
      <trkpt lat="42.698909" lon="1.966996">
        <ele>2127.1</ele>
        <time>2013-04-24T10:47:46Z</time>
      </trkpt>
      <trkpt lat="42.698817" lon="1.967023">
        <ele>2123.2</ele>
        <time>2013-04-24T10:47:56Z</time>
      </trkpt>
      <trkpt lat="42.698737" lon="1.967074">
        <ele>2121.3</ele>
        <time>2013-04-24T10:48:05Z</time>
      </trkpt>
      <trkpt lat="42.698646" lon="1.967087">
        <ele>2119.8</ele>
        <time>2013-04-24T10:48:13Z</time>
      </trkpt>
      <trkpt lat="42.698557" lon="1.967119">
        <ele>2119.4</ele>
        <time>2013-04-24T10:48:22Z</time>
      </trkpt>
      <trkpt lat="42.698462" lon="1.967126">
        <ele>2118.9</ele>
        <time>2013-04-24T10:48:31Z</time>
      </trkpt>
      <trkpt lat="42.698374" lon="1.967163">
        <ele>2118.4</ele>
        <time>2013-04-24T10:48:41Z</time>
      </trkpt>
      <trkpt lat="42.698284" lon="1.967193">
        <ele>2119.4</ele>
        <time>2013-04-24T10:48:51Z</time>
      </trkpt>
      <trkpt lat="42.698189" lon="1.967209">
        <ele>2118.9</ele>
        <time>2013-04-24T10:49:01Z</time>
      </trkpt>
      <trkpt lat="42.698103" lon="1.967221">
        <ele>2118.9</ele>
        <time>2013-04-24T10:49:12Z</time>
      </trkpt>
      <trkpt lat="42.698012" lon="1.967265">
        <ele>2118.9</ele>
        <time>2013-04-24T10:49:21Z</time>
      </trkpt>
      <trkpt lat="42.697921" lon="1.967290">
        <ele>2121.3</ele>
        <time>2013-04-24T10:49:30Z</time>
      </trkpt>
      <trkpt lat="42.697838" lon="1.967334">
        <ele>2121.3</ele>
        <time>2013-04-24T10:49:38Z</time>
      </trkpt>
      <trkpt lat="42.697746" lon="1.967371">
        <ele>2121.3</ele>
        <time>2013-04-24T10:49:47Z</time>
      </trkpt>
      <trkpt lat="42.697647" lon="1.967422">
        <ele>2119.8</ele>
        <time>2013-04-24T10:49:55Z</time>
      </trkpt>
      <trkpt lat="42.697571" lon="1.967476">
        <ele>2118.9</ele>
        <time>2013-04-24T10:50:21Z</time>
      </trkpt>
      <trkpt lat="42.697476" lon="1.967539">
        <ele>2118.9</ele>
        <time>2013-04-24T10:50:35Z</time>
      </trkpt>
      <trkpt lat="42.697385" lon="1.967603">
        <ele>2117.9</ele>
        <time>2013-04-24T10:50:44Z</time>
      </trkpt>
      <trkpt lat="42.697290" lon="1.967650">
        <ele>2116.5</ele>
        <time>2013-04-24T10:50:52Z</time>
      </trkpt>
      <trkpt lat="42.697197" lon="1.967686">
        <ele>2117.0</ele>
        <time>2013-04-24T10:51:00Z</time>
      </trkpt>
      <trkpt lat="42.697106" lon="1.967710">
        <ele>2119.8</ele>
        <time>2013-04-24T10:51:12Z</time>
      </trkpt>
      <trkpt lat="42.697019" lon="1.967766">
        <ele>2122.2</ele>
        <time>2013-04-24T10:51:26Z</time>
      </trkpt>
      <trkpt lat="42.696940" lon="1.967830">
        <ele>2124.6</ele>
        <time>2013-04-24T10:51:37Z</time>
      </trkpt>
      <trkpt lat="42.696856" lon="1.967884">
        <ele>2128.0</ele>
        <time>2013-04-24T10:51:49Z</time>
      </trkpt>
      <trkpt lat="42.696764" lon="1.967935">
        <ele>2129.9</ele>
        <time>2013-04-24T10:52:09Z</time>
      </trkpt>
      <trkpt lat="42.696676" lon="1.967986">
        <ele>2132.3</ele>
        <time>2013-04-24T10:52:21Z</time>
      </trkpt>
      <trkpt lat="42.696593" lon="1.968041">
        <ele>2134.7</ele>
        <time>2013-04-24T10:52:34Z</time>
      </trkpt>
      <trkpt lat="42.696517" lon="1.968094">
        <ele>2135.7</ele>
        <time>2013-04-24T10:52:48Z</time>
      </trkpt>
      <trkpt lat="42.696431" lon="1.968142">
        <ele>2136.2</ele>
        <time>2013-04-24T10:53:00Z</time>
      </trkpt>
      <trkpt lat="42.696352" lon="1.968189">
        <ele>2137.1</ele>
        <time>2013-04-24T10:53:11Z</time>
      </trkpt>
      <trkpt lat="42.696265" lon="1.968244">
        <ele>2139.1</ele>
        <time>2013-04-24T10:53:25Z</time>
      </trkpt>
      <trkpt lat="42.696245" lon="1.968305">
        <ele>2138.6</ele>
        <time>2013-04-24T10:58:19Z</time>
      </trkpt>
      <trkpt lat="42.696205" lon="1.968422">
        <ele>2140.5</ele>
        <time>2013-04-24T10:58:33Z</time>
      </trkpt>
      <trkpt lat="42.696155" lon="1.968524">
        <ele>2141.5</ele>
        <time>2013-04-24T10:58:47Z</time>
      </trkpt>
      <trkpt lat="42.696097" lon="1.968634">
        <ele>2143.9</ele>
        <time>2013-04-24T10:59:06Z</time>
      </trkpt>
      <trkpt lat="42.696010" lon="1.968676">
        <ele>2145.3</ele>
        <time>2013-04-24T10:59:20Z</time>
      </trkpt>
      <trkpt lat="42.695926" lon="1.968721">
        <ele>2146.3</ele>
        <time>2013-04-24T10:59:55Z</time>
      </trkpt>
      <trkpt lat="42.695860" lon="1.968775">
        <ele>2123.1</ele>
        <time>2013-04-24T11:00:18Z</time>
      </trkpt>
      <trkpt lat="42.695778" lon="1.968812">
        <ele>2125.1</ele>
        <time>2013-04-24T11:00:35Z</time>
      </trkpt>
      <trkpt lat="42.695687" lon="1.968852">
        <ele>2151.1</ele>
        <time>2013-04-24T11:00:53Z</time>
      </trkpt>
      <trkpt lat="42.695620" lon="1.968863">
        <ele>2152.1</ele>
        <time>2013-04-24T11:09:47Z</time>
      </trkpt>
      <trkpt lat="42.695546" lon="1.968858">
        <ele>2128.2</ele>
        <time>2013-04-24T11:10:08Z</time>
      </trkpt>
      <trkpt lat="42.695437" lon="1.968821">
        <ele>2147.7</ele>
        <time>2013-04-24T11:10:53Z</time>
      </trkpt>
      <trkpt lat="42.695348" lon="1.968849">
        <ele>2147.2</ele>
        <time>2013-04-24T11:11:12Z</time>
      </trkpt>
      <trkpt lat="42.695245" lon="1.968807">
        <ele>2144.8</ele>
        <time>2013-04-24T11:11:32Z</time>
      </trkpt>
      <trkpt lat="42.695118" lon="1.968839">
        <ele>2148.7</ele>
        <time>2013-04-24T11:12:47Z</time>
      </trkpt>
      <trkpt lat="42.695030" lon="1.968817">
        <ele>2145.3</ele>
        <time>2013-04-24T11:13:00Z</time>
      </trkpt>
      <trkpt lat="42.694965" lon="1.968863">
        <ele>2145.8</ele>
        <time>2013-04-24T11:13:37Z</time>
      </trkpt>
      <trkpt lat="42.694861" lon="1.968835">
        <ele>2144.4</ele>
        <time>2013-04-24T11:13:56Z</time>
      </trkpt>
      <trkpt lat="42.694750" lon="1.968876">
        <ele>2147.2</ele>
        <time>2013-04-24T11:14:21Z</time>
      </trkpt>
      <trkpt lat="42.694646" lon="1.968875">
        <ele>2147.7</ele>
        <time>2013-04-24T11:14:41Z</time>
      </trkpt>
      <trkpt lat="42.694579" lon="1.968950">
        <ele>2147.2</ele>
        <time>2013-04-24T11:15:44Z</time>
      </trkpt>
      <trkpt lat="42.694474" lon="1.968969">
        <ele>2149.6</ele>
        <time>2013-04-24T11:16:42Z</time>
      </trkpt>
      <trkpt lat="42.694393" lon="1.969012">
        <ele>2153.0</ele>
        <time>2013-04-24T11:17:16Z</time>
      </trkpt>
      <trkpt lat="42.694294" lon="1.969081">
        <ele>2154.4</ele>
        <time>2013-04-24T11:17:53Z</time>
      </trkpt>
      <trkpt lat="42.694212" lon="1.969062">
        <ele>2158.3</ele>
        <time>2013-04-24T11:18:12Z</time>
      </trkpt>
      <trkpt lat="42.694121" lon="1.969106">
        <ele>2165.0</ele>
        <time>2013-04-24T11:18:34Z</time>
      </trkpt>
      <trkpt lat="42.694091" lon="1.969072">
        <ele>2169.8</ele>
        <time>2013-04-24T11:19:05Z</time>
      </trkpt>
      <trkpt lat="42.694021" lon="1.969116">
        <ele>2168.9</ele>
        <time>2013-04-24T11:20:58Z</time>
      </trkpt>
      <trkpt lat="42.694002" lon="1.969094">
        <ele>2169.4</ele>
        <time>2013-04-24T11:21:32Z</time>
        <name>Roc de Bragues</name>
      </trkpt>
      <trkpt lat="42.694031" lon="1.969103">
        <ele>2165.5</ele>
        <time>2013-04-24T11:21:53Z</time>
      </trkpt>
      <trkpt lat="42.694103" lon="1.969111">
        <ele>2166.5</ele>
        <time>2013-04-24T11:23:23Z</time>
      </trkpt>
      <trkpt lat="42.694183" lon="1.969121">
        <ele>2163.6</ele>
        <time>2013-04-24T11:23:46Z</time>
      </trkpt>
      <trkpt lat="42.694265" lon="1.969111">
        <ele>2159.3</ele>
        <time>2013-04-24T11:24:18Z</time>
      </trkpt>
      <trkpt lat="42.694319" lon="1.969038">
        <ele>2154.0</ele>
        <time>2013-04-24T11:24:34Z</time>
      </trkpt>
      <trkpt lat="42.694419" lon="1.969040">
        <ele>2153.5</ele>
        <time>2013-04-24T11:24:54Z</time>
      </trkpt>
      <trkpt lat="42.694471" lon="1.968980">
        <ele>2149.6</ele>
        <time>2013-04-24T11:25:10Z</time>
      </trkpt>
      <trkpt lat="42.694533" lon="1.968934">
        <ele>2149.2</ele>
        <time>2013-04-24T11:25:37Z</time>
      </trkpt>
      <trkpt lat="42.694606" lon="1.968903">
        <ele>2145.3</ele>
        <time>2013-04-24T11:26:13Z</time>
      </trkpt>
      <trkpt lat="42.694700" lon="1.968873">
        <ele>2148.7</ele>
        <time>2013-04-24T11:26:31Z</time>
      </trkpt>
      <trkpt lat="42.694796" lon="1.968878">
        <ele>2147.7</ele>
        <time>2013-04-24T11:27:02Z</time>
      </trkpt>
      <trkpt lat="42.694881" lon="1.968840">
        <ele>2145.8</ele>
        <time>2013-04-24T11:27:41Z</time>
      </trkpt>
      <trkpt lat="42.694962" lon="1.968859">
        <ele>2145.3</ele>
        <time>2013-04-24T11:27:59Z</time>
      </trkpt>
      <trkpt lat="42.695070" lon="1.968836">
        <ele>2146.3</ele>
        <time>2013-04-24T11:28:13Z</time>
      </trkpt>
      <trkpt lat="42.695164" lon="1.968832">
        <ele>2146.8</ele>
        <time>2013-04-24T11:28:37Z</time>
      </trkpt>
      <trkpt lat="42.695252" lon="1.968796">
        <ele>2144.8</ele>
        <time>2013-04-24T11:28:52Z</time>
      </trkpt>
      <trkpt lat="42.695357" lon="1.968856">
        <ele>2148.2</ele>
        <time>2013-04-24T11:29:14Z</time>
      </trkpt>
      <trkpt lat="42.695458" lon="1.968870">
        <ele>2152.5</ele>
        <time>2013-04-24T11:29:41Z</time>
      </trkpt>
      <trkpt lat="42.695588" lon="1.968913">
        <ele>2153.0</ele>
        <time>2013-04-24T11:30:32Z</time>
      </trkpt>
      <trkpt lat="42.695657" lon="1.968879">
        <ele>2158.3</ele>
        <time>2013-04-24T12:20:56Z</time>
      </trkpt>
      <trkpt lat="42.695702" lon="1.968867">
        <ele>2126.1</ele>
        <time>2013-04-24T12:21:12Z</time>
      </trkpt>
      <trkpt lat="42.695790" lon="1.968864">
        <ele>2124.9</ele>
        <time>2013-04-24T12:21:23Z</time>
      </trkpt>
      <trkpt lat="42.695880" lon="1.968789">
        <ele>2121.9</ele>
        <time>2013-04-24T12:21:35Z</time>
      </trkpt>
      <trkpt lat="42.695953" lon="1.968748">
        <ele>2154.9</ele>
        <time>2013-04-24T12:21:48Z</time>
      </trkpt>
      <trkpt lat="42.696047" lon="1.968714">
        <ele>2152.5</ele>
        <time>2013-04-24T12:21:59Z</time>
      </trkpt>
      <trkpt lat="42.696140" lon="1.968658">
        <ele>2151.1</ele>
        <time>2013-04-24T12:22:10Z</time>
      </trkpt>
      <trkpt lat="42.696197" lon="1.968580">
        <ele>2151.1</ele>
        <time>2013-04-24T12:22:20Z</time>
      </trkpt>
      <trkpt lat="42.696286" lon="1.968522">
        <ele>2151.1</ele>
        <time>2013-04-24T12:22:32Z</time>
      </trkpt>
      <trkpt lat="42.696362" lon="1.968426">
        <ele>2151.1</ele>
        <time>2013-04-24T12:22:42Z</time>
      </trkpt>
      <trkpt lat="42.696439" lon="1.968348">
        <ele>2148.2</ele>
        <time>2013-04-24T12:22:52Z</time>
      </trkpt>
      <trkpt lat="42.696516" lon="1.968259">
        <ele>2145.8</ele>
        <time>2013-04-24T12:23:04Z</time>
      </trkpt>
      <trkpt lat="42.696576" lon="1.968153">
        <ele>2142.9</ele>
        <time>2013-04-24T12:23:13Z</time>
      </trkpt>
      <trkpt lat="42.696623" lon="1.968046">
        <ele>2140.0</ele>
        <time>2013-04-24T12:23:24Z</time>
      </trkpt>
      <trkpt lat="42.696724" lon="1.967976">
        <ele>2137.6</ele>
        <time>2013-04-24T12:23:40Z</time>
      </trkpt>
      <trkpt lat="42.696807" lon="1.967913">
        <ele>2134.7</ele>
        <time>2013-04-24T12:23:56Z</time>
      </trkpt>
      <trkpt lat="42.696873" lon="1.967816">
        <ele>2130.4</ele>
        <time>2013-04-24T12:24:17Z</time>
      </trkpt>
      <trkpt lat="42.696966" lon="1.967770">
        <ele>2127.5</ele>
        <time>2013-04-24T12:24:27Z</time>
      </trkpt>
      <trkpt lat="42.697059" lon="1.967708">
        <ele>2126.1</ele>
        <time>2013-04-24T12:24:38Z</time>
      </trkpt>
      <trkpt lat="42.697148" lon="1.967684">
        <ele>2123.2</ele>
        <time>2013-04-24T12:24:48Z</time>
      </trkpt>
      <trkpt lat="42.697244" lon="1.967642">
        <ele>2121.8</ele>
        <time>2013-04-24T12:24:57Z</time>
      </trkpt>
      <trkpt lat="42.697337" lon="1.967592">
        <ele>2122.2</ele>
        <time>2013-04-24T12:25:05Z</time>
      </trkpt>
      <trkpt lat="42.697430" lon="1.967534">
        <ele>2123.2</ele>
        <time>2013-04-24T12:25:14Z</time>
      </trkpt>
      <trkpt lat="42.697519" lon="1.967475">
        <ele>2123.7</ele>
        <time>2013-04-24T12:25:23Z</time>
      </trkpt>
      <trkpt lat="42.697607" lon="1.967402">
        <ele>2124.6</ele>
        <time>2013-04-24T12:25:33Z</time>
      </trkpt>
      <trkpt lat="42.697699" lon="1.967382">
        <ele>2125.6</ele>
        <time>2013-04-24T12:25:42Z</time>
      </trkpt>
      <trkpt lat="42.697786" lon="1.967358">
        <ele>2126.6</ele>
        <time>2013-04-24T12:25:51Z</time>
      </trkpt>
      <trkpt lat="42.697851" lon="1.967307">
        <ele>2125.1</ele>
        <time>2013-04-24T12:26:56Z</time>
      </trkpt>
      <trkpt lat="42.697934" lon="1.967237">
        <ele>2125.1</ele>
        <time>2013-04-24T12:27:05Z</time>
      </trkpt>
      <trkpt lat="42.698029" lon="1.967199">
        <ele>2124.6</ele>
        <time>2013-04-24T12:27:13Z</time>
      </trkpt>
      <trkpt lat="42.698122" lon="1.967139">
        <ele>2123.7</ele>
        <time>2013-04-24T12:27:22Z</time>
      </trkpt>
      <trkpt lat="42.698213" lon="1.967083">
        <ele>2123.2</ele>
        <time>2013-04-24T12:27:32Z</time>
      </trkpt>
      <trkpt lat="42.698298" lon="1.967023">
        <ele>2123.2</ele>
        <time>2013-04-24T12:27:46Z</time>
      </trkpt>
      <trkpt lat="42.698395" lon="1.966955">
        <ele>2123.7</ele>
        <time>2013-04-24T12:27:57Z</time>
      </trkpt>
      <trkpt lat="42.698488" lon="1.966903">
        <ele>2121.8</ele>
        <time>2013-04-24T12:28:07Z</time>
      </trkpt>
      <trkpt lat="42.698590" lon="1.966909">
        <ele>2121.3</ele>
        <time>2013-04-24T12:28:18Z</time>
      </trkpt>
      <trkpt lat="42.698675" lon="1.966972">
        <ele>2123.7</ele>
        <time>2013-04-24T12:28:31Z</time>
      </trkpt>
      <trkpt lat="42.698778" lon="1.966966">
        <ele>2126.1</ele>
        <time>2013-04-24T12:28:46Z</time>
      </trkpt>
      <trkpt lat="42.698863" lon="1.966962">
        <ele>2129.0</ele>
        <time>2013-04-24T12:29:00Z</time>
      </trkpt>
      <trkpt lat="42.698955" lon="1.966948">
        <ele>2131.4</ele>
        <time>2013-04-24T12:29:13Z</time>
      </trkpt>
      <trkpt lat="42.699043" lon="1.966930">
        <ele>2132.8</ele>
        <time>2013-04-24T12:29:27Z</time>
      </trkpt>
      <trkpt lat="42.699141" lon="1.966891">
        <ele>2134.7</ele>
        <time>2013-04-24T12:29:40Z</time>
      </trkpt>
      <trkpt lat="42.699240" lon="1.966893">
        <ele>2136.2</ele>
        <time>2013-04-24T12:29:52Z</time>
      </trkpt>
      <trkpt lat="42.699331" lon="1.966851">
        <ele>2138.6</ele>
        <time>2013-04-24T12:30:06Z</time>
      </trkpt>
      <trkpt lat="42.699425" lon="1.966817">
        <ele>2140.0</ele>
        <time>2013-04-24T12:30:19Z</time>
      </trkpt>
      <trkpt lat="42.699511" lon="1.966788">
        <ele>2140.5</ele>
        <time>2013-04-24T12:30:31Z</time>
      </trkpt>
      <trkpt lat="42.699607" lon="1.966846">
        <ele>2141.0</ele>
        <time>2013-04-24T12:30:44Z</time>
      </trkpt>
      <trkpt lat="42.699701" lon="1.966822">
        <ele>2139.6</ele>
        <time>2013-04-24T12:30:56Z</time>
      </trkpt>
      <trkpt lat="42.699789" lon="1.966780">
        <ele>2139.6</ele>
        <time>2013-04-24T12:31:07Z</time>
      </trkpt>
      <trkpt lat="42.699857" lon="1.966697">
        <ele>2138.1</ele>
        <time>2013-04-24T12:31:17Z</time>
      </trkpt>
      <trkpt lat="42.699945" lon="1.966646">
        <ele>2136.7</ele>
        <time>2013-04-24T12:31:30Z</time>
      </trkpt>
      <trkpt lat="42.700026" lon="1.966569">
        <ele>2136.2</ele>
        <time>2013-04-24T12:31:40Z</time>
      </trkpt>
      <trkpt lat="42.700128" lon="1.966518">
        <ele>2135.7</ele>
        <time>2013-04-24T12:31:50Z</time>
      </trkpt>
      <trkpt lat="42.700225" lon="1.966479">
        <ele>2135.7</ele>
        <time>2013-04-24T12:32:00Z</time>
      </trkpt>
      <trkpt lat="42.700325" lon="1.966471">
        <ele>2135.2</ele>
        <time>2013-04-24T12:32:12Z</time>
      </trkpt>
      <trkpt lat="42.700417" lon="1.966415">
        <ele>2135.2</ele>
        <time>2013-04-24T12:32:22Z</time>
      </trkpt>
      <trkpt lat="42.700506" lon="1.966402">
        <ele>2136.2</ele>
        <time>2013-04-24T12:32:31Z</time>
      </trkpt>
      <trkpt lat="42.700604" lon="1.966379">
        <ele>2137.1</ele>
        <time>2013-04-24T12:32:41Z</time>
      </trkpt>
      <trkpt lat="42.700698" lon="1.966355">
        <ele>2138.1</ele>
        <time>2013-04-24T12:32:55Z</time>
      </trkpt>
      <trkpt lat="42.700794" lon="1.966307">
        <ele>2136.7</ele>
        <time>2013-04-24T12:33:06Z</time>
      </trkpt>
      <trkpt lat="42.700886" lon="1.966236">
        <ele>2138.1</ele>
        <time>2013-04-24T12:33:16Z</time>
      </trkpt>
      <trkpt lat="42.700981" lon="1.966179">
        <ele>2138.6</ele>
        <time>2013-04-24T12:33:26Z</time>
      </trkpt>
      <trkpt lat="42.701074" lon="1.966150">
        <ele>2139.1</ele>
        <time>2013-04-24T12:33:36Z</time>
      </trkpt>
      <trkpt lat="42.701175" lon="1.966162">
        <ele>2141.0</ele>
        <time>2013-04-24T12:33:47Z</time>
      </trkpt>
      <trkpt lat="42.701271" lon="1.966170">
        <ele>2141.9</ele>
        <time>2013-04-24T12:33:59Z</time>
      </trkpt>
      <trkpt lat="42.701363" lon="1.966179">
        <ele>2143.9</ele>
        <time>2013-04-24T12:34:11Z</time>
      </trkpt>
      <trkpt lat="42.701447" lon="1.966135">
        <ele>2145.8</ele>
        <time>2013-04-24T12:34:23Z</time>
      </trkpt>
      <trkpt lat="42.701549" lon="1.966132">
        <ele>2146.8</ele>
        <time>2013-04-24T12:34:35Z</time>
      </trkpt>
      <trkpt lat="42.701641" lon="1.966151">
        <ele>2147.7</ele>
        <time>2013-04-24T12:34:47Z</time>
      </trkpt>
      <trkpt lat="42.701735" lon="1.966167">
        <ele>2148.7</ele>
        <time>2013-04-24T12:34:59Z</time>
      </trkpt>
      <trkpt lat="42.701828" lon="1.966189">
        <ele>2149.2</ele>
        <time>2013-04-24T12:35:09Z</time>
      </trkpt>
      <trkpt lat="42.701923" lon="1.966191">
        <ele>2148.7</ele>
        <time>2013-04-24T12:35:20Z</time>
      </trkpt>
      <trkpt lat="42.702016" lon="1.966212">
        <ele>2148.2</ele>
        <time>2013-04-24T12:35:31Z</time>
      </trkpt>
      <trkpt lat="42.702113" lon="1.966221">
        <ele>2147.7</ele>
        <time>2013-04-24T12:35:41Z</time>
      </trkpt>
      <trkpt lat="42.702206" lon="1.966230">
        <ele>2146.8</ele>
        <time>2013-04-24T12:35:51Z</time>
      </trkpt>
      <trkpt lat="42.702303" lon="1.966249">
        <ele>2145.8</ele>
        <time>2013-04-24T12:36:02Z</time>
      </trkpt>
      <trkpt lat="42.702396" lon="1.966289">
        <ele>2145.8</ele>
        <time>2013-04-24T12:36:15Z</time>
      </trkpt>
      <trkpt lat="42.702492" lon="1.966314">
        <ele>2146.3</ele>
        <time>2013-04-24T12:36:27Z</time>
      </trkpt>
      <trkpt lat="42.702579" lon="1.966339">
        <ele>2146.8</ele>
        <time>2013-04-24T12:36:40Z</time>
      </trkpt>
      <trkpt lat="42.702672" lon="1.966346">
        <ele>2148.2</ele>
        <time>2013-04-24T12:36:55Z</time>
      </trkpt>
      <trkpt lat="42.702769" lon="1.966303">
        <ele>2148.2</ele>
        <time>2013-04-24T12:37:09Z</time>
      </trkpt>
      <trkpt lat="42.702871" lon="1.966318">
        <ele>2149.2</ele>
        <time>2013-04-24T12:37:22Z</time>
      </trkpt>
      <trkpt lat="42.702964" lon="1.966335">
        <ele>2151.1</ele>
        <time>2013-04-24T12:37:39Z</time>
      </trkpt>
      <trkpt lat="42.703060" lon="1.966350">
        <ele>2153.0</ele>
        <time>2013-04-24T12:37:56Z</time>
      </trkpt>
      <trkpt lat="42.703155" lon="1.966366">
        <ele>2154.9</ele>
        <time>2013-04-24T12:38:17Z</time>
      </trkpt>
      <trkpt lat="42.703253" lon="1.966363">
        <ele>2156.9</ele>
        <time>2013-04-24T12:38:36Z</time>
      </trkpt>
      <trkpt lat="42.703344" lon="1.966342">
        <ele>2159.3</ele>
        <time>2013-04-24T12:38:54Z</time>
      </trkpt>
      <trkpt lat="42.703424" lon="1.966380">
        <ele>2163.1</ele>
        <time>2013-04-24T12:39:14Z</time>
      </trkpt>
      <trkpt lat="42.703513" lon="1.966432">
        <ele>2166.0</ele>
        <time>2013-04-24T12:39:28Z</time>
      </trkpt>
      <trkpt lat="42.703596" lon="1.966474">
        <ele>2166.5</ele>
        <time>2013-04-24T12:39:39Z</time>
      </trkpt>
      <trkpt lat="42.703682" lon="1.966511">
        <ele>2167.4</ele>
        <time>2013-04-24T12:39:52Z</time>
      </trkpt>
      <trkpt lat="42.703770" lon="1.966532">
        <ele>2168.4</ele>
        <time>2013-04-24T12:40:03Z</time>
      </trkpt>
      <trkpt lat="42.703858" lon="1.966529">
        <ele>2167.9</ele>
        <time>2013-04-24T12:40:14Z</time>
      </trkpt>
      <trkpt lat="42.703952" lon="1.966503">
        <ele>2167.9</ele>
        <time>2013-04-24T12:40:25Z</time>
      </trkpt>
      <trkpt lat="42.704044" lon="1.966502">
        <ele>2166.9</ele>
        <time>2013-04-24T12:40:36Z</time>
      </trkpt>
      <trkpt lat="42.704133" lon="1.966483">
        <ele>2166.0</ele>
        <time>2013-04-24T12:40:47Z</time>
      </trkpt>
      <trkpt lat="42.704219" lon="1.966475">
        <ele>2164.1</ele>
        <time>2013-04-24T12:40:57Z</time>
      </trkpt>
      <trkpt lat="42.704314" lon="1.966497">
        <ele>2161.7</ele>
        <time>2013-04-24T12:41:08Z</time>
      </trkpt>
      <trkpt lat="42.704407" lon="1.966529">
        <ele>2160.7</ele>
        <time>2013-04-24T12:41:19Z</time>
      </trkpt>
      <trkpt lat="42.704499" lon="1.966542">
        <ele>2158.8</ele>
        <time>2013-04-24T12:41:30Z</time>
      </trkpt>
      <trkpt lat="42.704594" lon="1.966546">
        <ele>2155.9</ele>
        <time>2013-04-24T12:41:42Z</time>
      </trkpt>
      <trkpt lat="42.704696" lon="1.966572">
        <ele>2154.4</ele>
        <time>2013-04-24T12:41:54Z</time>
      </trkpt>
      <trkpt lat="42.704786" lon="1.966550">
        <ele>2151.6</ele>
        <time>2013-04-24T12:42:07Z</time>
      </trkpt>
      <trkpt lat="42.704867" lon="1.966607">
        <ele>2150.1</ele>
        <time>2013-04-24T12:42:20Z</time>
      </trkpt>
      <trkpt lat="42.704965" lon="1.966601">
        <ele>2146.8</ele>
        <time>2013-04-24T12:42:36Z</time>
      </trkpt>
      <trkpt lat="42.705072" lon="1.966612">
        <ele>2143.9</ele>
        <time>2013-04-24T12:42:56Z</time>
      </trkpt>
      <trkpt lat="42.705178" lon="1.966635">
        <ele>2141.5</ele>
        <time>2013-04-24T12:43:08Z</time>
      </trkpt>
      <trkpt lat="42.705261" lon="1.966670">
        <ele>2140.0</ele>
        <time>2013-04-24T12:43:19Z</time>
      </trkpt>
      <trkpt lat="42.705356" lon="1.966728">
        <ele>2139.1</ele>
        <time>2013-04-24T12:43:30Z</time>
      </trkpt>
      <trkpt lat="42.705437" lon="1.966772">
        <ele>2136.7</ele>
        <time>2013-04-24T12:43:42Z</time>
      </trkpt>
      <trkpt lat="42.705533" lon="1.966808">
        <ele>2136.2</ele>
        <time>2013-04-24T12:43:54Z</time>
      </trkpt>
      <trkpt lat="42.705619" lon="1.966836">
        <ele>2134.7</ele>
        <time>2013-04-24T12:44:05Z</time>
      </trkpt>
      <trkpt lat="42.705721" lon="1.966845">
        <ele>2133.8</ele>
        <time>2013-04-24T12:44:15Z</time>
      </trkpt>
      <trkpt lat="42.705820" lon="1.966874">
        <ele>2132.3</ele>
        <time>2013-04-24T12:44:25Z</time>
      </trkpt>
      <trkpt lat="42.705908" lon="1.966864">
        <ele>2131.4</ele>
        <time>2013-04-24T12:44:36Z</time>
      </trkpt>
      <trkpt lat="42.706003" lon="1.966830">
        <ele>2129.5</ele>
        <time>2013-04-24T12:44:46Z</time>
      </trkpt>
      <trkpt lat="42.706094" lon="1.966828">
        <ele>2128.0</ele>
        <time>2013-04-24T12:44:56Z</time>
      </trkpt>
      <trkpt lat="42.706189" lon="1.966835">
        <ele>2127.1</ele>
        <time>2013-04-24T12:45:06Z</time>
      </trkpt>
      <trkpt lat="42.706282" lon="1.966797">
        <ele>2126.1</ele>
        <time>2013-04-24T12:45:16Z</time>
      </trkpt>
      <trkpt lat="42.706388" lon="1.966789">
        <ele>2125.1</ele>
        <time>2013-04-24T12:45:27Z</time>
      </trkpt>
      <trkpt lat="42.706487" lon="1.966790">
        <ele>2124.2</ele>
        <time>2013-04-24T12:45:38Z</time>
      </trkpt>
      <trkpt lat="42.706564" lon="1.966755">
        <ele>2123.2</ele>
        <time>2013-04-24T12:45:48Z</time>
      </trkpt>
      <trkpt lat="42.706664" lon="1.966735">
        <ele>2122.2</ele>
        <time>2013-04-24T12:45:58Z</time>
      </trkpt>
      <trkpt lat="42.706765" lon="1.966733">
        <ele>2121.8</ele>
        <time>2013-04-24T12:46:08Z</time>
      </trkpt>
      <trkpt lat="42.706861" lon="1.966722">
        <ele>2121.3</ele>
        <time>2013-04-24T12:46:18Z</time>
      </trkpt>
      <trkpt lat="42.706945" lon="1.966696">
        <ele>2121.3</ele>
        <time>2013-04-24T12:46:29Z</time>
      </trkpt>
      <trkpt lat="42.707041" lon="1.966670">
        <ele>2121.3</ele>
        <time>2013-04-24T12:46:41Z</time>
      </trkpt>
      <trkpt lat="42.707136" lon="1.966641">
        <ele>2121.8</ele>
        <time>2013-04-24T12:46:53Z</time>
      </trkpt>
      <trkpt lat="42.707226" lon="1.966596">
        <ele>2122.2</ele>
        <time>2013-04-24T12:47:06Z</time>
      </trkpt>
      <trkpt lat="42.707316" lon="1.966547">
        <ele>2122.7</ele>
        <time>2013-04-24T12:47:18Z</time>
      </trkpt>
      <trkpt lat="42.707413" lon="1.966513">
        <ele>2123.7</ele>
        <time>2013-04-24T12:47:31Z</time>
      </trkpt>
      <trkpt lat="42.707495" lon="1.966483">
        <ele>2124.2</ele>
        <time>2013-04-24T12:47:44Z</time>
      </trkpt>
      <trkpt lat="42.707585" lon="1.966441">
        <ele>2126.1</ele>
        <time>2013-04-24T12:47:59Z</time>
      </trkpt>
      <trkpt lat="42.707672" lon="1.966401">
        <ele>2127.1</ele>
        <time>2013-04-24T12:48:13Z</time>
      </trkpt>
      <trkpt lat="42.707750" lon="1.966364">
        <ele>2128.0</ele>
        <time>2013-04-24T12:48:28Z</time>
      </trkpt>
      <trkpt lat="42.707858" lon="1.966336">
        <ele>2129.9</ele>
        <time>2013-04-24T12:48:45Z</time>
      </trkpt>
      <trkpt lat="42.707920" lon="1.966284">
        <ele>2131.4</ele>
        <time>2013-04-24T12:49:00Z</time>
      </trkpt>
      <trkpt lat="42.707996" lon="1.966245">
        <ele>2131.4</ele>
        <time>2013-04-24T12:49:36Z</time>
      </trkpt>
      <trkpt lat="42.708029" lon="1.966223">
        <ele>2133.3</ele>
        <time>2013-04-24T12:51:32Z</time>
      </trkpt>
      <trkpt lat="42.708110" lon="1.966152">
        <ele>2134.3</ele>
        <time>2013-04-24T12:51:43Z</time>
      </trkpt>
      <trkpt lat="42.708205" lon="1.966106">
        <ele>2136.2</ele>
        <time>2013-04-24T12:51:55Z</time>
      </trkpt>
      <trkpt lat="42.708291" lon="1.966056">
        <ele>2137.6</ele>
        <time>2013-04-24T12:52:07Z</time>
      </trkpt>
      <trkpt lat="42.708376" lon="1.966000">
        <ele>2139.6</ele>
        <time>2013-04-24T12:52:19Z</time>
      </trkpt>
      <trkpt lat="42.708449" lon="1.965944">
        <ele>2140.0</ele>
        <time>2013-04-24T12:52:30Z</time>
      </trkpt>
      <trkpt lat="42.708545" lon="1.965906">
        <ele>2141.9</ele>
        <time>2013-04-24T12:52:49Z</time>
      </trkpt>
      <trkpt lat="42.708619" lon="1.965879">
        <ele>2143.9</ele>
        <time>2013-04-24T12:53:07Z</time>
      </trkpt>
      <trkpt lat="42.708710" lon="1.965869">
        <ele>2146.8</ele>
        <time>2013-04-24T12:53:21Z</time>
      </trkpt>
      <trkpt lat="42.708794" lon="1.965869">
        <ele>2148.2</ele>
        <time>2013-04-24T12:53:32Z</time>
      </trkpt>
      <trkpt lat="42.708879" lon="1.965896">
        <ele>2150.6</ele>
        <time>2013-04-24T12:53:46Z</time>
      </trkpt>
      <trkpt lat="42.708979" lon="1.965909">
        <ele>2153.5</ele>
        <time>2013-04-24T12:54:03Z</time>
      </trkpt>
      <trkpt lat="42.709069" lon="1.965953">
        <ele>2155.9</ele>
        <time>2013-04-24T12:54:19Z</time>
      </trkpt>
      <trkpt lat="42.709157" lon="1.965960">
        <ele>2157.8</ele>
        <time>2013-04-24T12:54:33Z</time>
      </trkpt>
      <trkpt lat="42.709230" lon="1.966028">
        <ele>2160.2</ele>
        <time>2013-04-24T12:54:54Z</time>
      </trkpt>
      <trkpt lat="42.709311" lon="1.966086">
        <ele>2162.1</ele>
        <time>2013-04-24T12:55:11Z</time>
      </trkpt>
      <trkpt lat="42.709398" lon="1.966129">
        <ele>2165.0</ele>
        <time>2013-04-24T12:55:26Z</time>
      </trkpt>
      <trkpt lat="42.709485" lon="1.966193">
        <ele>2166.5</ele>
        <time>2013-04-24T12:55:41Z</time>
      </trkpt>
      <trkpt lat="42.709569" lon="1.966255">
        <ele>2168.4</ele>
        <time>2013-04-24T12:55:56Z</time>
      </trkpt>
      <trkpt lat="42.709655" lon="1.966315">
        <ele>2170.8</ele>
        <time>2013-04-24T12:56:12Z</time>
      </trkpt>
      <trkpt lat="42.709743" lon="1.966371">
        <ele>2173.2</ele>
        <time>2013-04-24T12:56:27Z</time>
      </trkpt>
      <trkpt lat="42.709833" lon="1.966427">
        <ele>2175.6</ele>
        <time>2013-04-24T12:56:43Z</time>
      </trkpt>
      <trkpt lat="42.709904" lon="1.966495">
        <ele>2178.0</ele>
        <time>2013-04-24T12:57:02Z</time>
      </trkpt>
      <trkpt lat="42.709935" lon="1.966594">
        <ele>2180.9</ele>
        <time>2013-04-24T12:57:20Z</time>
      </trkpt>
      <trkpt lat="42.710014" lon="1.966663">
        <ele>2182.8</ele>
        <time>2013-04-24T12:57:53Z</time>
      </trkpt>
      <trkpt lat="42.710081" lon="1.966703">
        <ele>2185.2</ele>
        <time>2013-04-24T12:58:07Z</time>
      </trkpt>
      <trkpt lat="42.710191" lon="1.966668">
        <ele>2188.6</ele>
        <time>2013-04-24T12:58:19Z</time>
      </trkpt>
      <trkpt lat="42.710256" lon="1.966745">
        <ele>2192.4</ele>
        <time>2013-04-24T12:58:29Z</time>
      </trkpt>
      <trkpt lat="42.710346" lon="1.966768">
        <ele>2193.9</ele>
        <time>2013-04-24T12:58:37Z</time>
      </trkpt>
      <trkpt lat="42.710432" lon="1.966800">
        <ele>2195.8</ele>
        <time>2013-04-24T12:58:46Z</time>
      </trkpt>
      <trkpt lat="42.710504" lon="1.966879">
        <ele>2197.2</ele>
        <time>2013-04-24T12:58:56Z</time>
      </trkpt>
      <trkpt lat="42.710590" lon="1.966928">
        <ele>2198.7</ele>
        <time>2013-04-24T12:59:06Z</time>
      </trkpt>
      <trkpt lat="42.710662" lon="1.967010">
        <ele>2201.1</ele>
        <time>2013-04-24T12:59:17Z</time>
      </trkpt>
      <trkpt lat="42.710744" lon="1.967022">
        <ele>2204.4</ele>
        <time>2013-04-24T12:59:31Z</time>
      </trkpt>
      <trkpt lat="42.710819" lon="1.967046">
        <ele>2208.3</ele>
        <time>2013-04-24T12:59:49Z</time>
      </trkpt>
      <trkpt lat="42.710899" lon="1.967067">
        <ele>2210.7</ele>
        <time>2013-04-24T13:00:01Z</time>
      </trkpt>
      <trkpt lat="42.710979" lon="1.967085">
        <ele>2214.1</ele>
        <time>2013-04-24T13:00:12Z</time>
      </trkpt>
      <trkpt lat="42.711068" lon="1.967150">
        <ele>2215.5</ele>
        <time>2013-04-24T13:00:22Z</time>
      </trkpt>
      <trkpt lat="42.711158" lon="1.967202">
        <ele>2219.3</ele>
        <time>2013-04-24T13:00:36Z</time>
      </trkpt>
      <trkpt lat="42.711244" lon="1.967234">
        <ele>2221.3</ele>
        <time>2013-04-24T13:00:52Z</time>
      </trkpt>
      <trkpt lat="42.711319" lon="1.967308">
        <ele>2222.2</ele>
        <time>2013-04-24T13:01:03Z</time>
      </trkpt>
      <trkpt lat="42.711386" lon="1.967399">
        <ele>2223.7</ele>
        <time>2013-04-24T13:01:15Z</time>
      </trkpt>
      <trkpt lat="42.711469" lon="1.967438">
        <ele>2227.0</ele>
        <time>2013-04-24T13:01:31Z</time>
      </trkpt>
      <trkpt lat="42.711548" lon="1.967488">
        <ele>2231.4</ele>
        <time>2013-04-24T13:01:47Z</time>
      </trkpt>
      <trkpt lat="42.711643" lon="1.967506">
        <ele>2235.2</ele>
        <time>2013-04-24T13:02:03Z</time>
      </trkpt>
      <trkpt lat="42.711733" lon="1.967502">
        <ele>2239.1</ele>
        <time>2013-04-24T13:02:21Z</time>
      </trkpt>
      <trkpt lat="42.711809" lon="1.967526">
        <ele>2243.4</ele>
        <time>2013-04-24T13:02:38Z</time>
      </trkpt>
      <trkpt lat="42.711893" lon="1.967555">
        <ele>2247.7</ele>
        <time>2013-04-24T13:02:52Z</time>
      </trkpt>
      <trkpt lat="42.711977" lon="1.967554">
        <ele>2251.5</ele>
        <time>2013-04-24T13:03:06Z</time>
      </trkpt>
      <trkpt lat="42.712064" lon="1.967590">
        <ele>2253.5</ele>
        <time>2013-04-24T13:03:21Z</time>
      </trkpt>
      <trkpt lat="42.712161" lon="1.967608">
        <ele>2255.9</ele>
        <time>2013-04-24T13:03:36Z</time>
      </trkpt>
      <trkpt lat="42.712204" lon="1.967713">
        <ele>2259.2</ele>
        <time>2013-04-24T13:03:50Z</time>
      </trkpt>
      <trkpt lat="42.712283" lon="1.967776">
        <ele>2265.0</ele>
        <time>2013-04-24T13:04:07Z</time>
      </trkpt>
      <trkpt lat="42.712352" lon="1.967861">
        <ele>2267.4</ele>
        <time>2013-04-24T13:04:20Z</time>
      </trkpt>
      <trkpt lat="42.712416" lon="1.967941">
        <ele>2270.3</ele>
        <time>2013-04-24T13:04:35Z</time>
      </trkpt>
      <trkpt lat="42.712463" lon="1.968052">
        <ele>2272.7</ele>
        <time>2013-04-24T13:04:48Z</time>
      </trkpt>
      <trkpt lat="42.712538" lon="1.968125">
        <ele>2272.7</ele>
        <time>2013-04-24T13:04:59Z</time>
      </trkpt>
      <trkpt lat="42.712604" lon="1.968214">
        <ele>2272.7</ele>
        <time>2013-04-24T13:05:10Z</time>
      </trkpt>
      <trkpt lat="42.712680" lon="1.968303">
        <ele>2272.7</ele>
        <time>2013-04-24T13:05:22Z</time>
      </trkpt>
      <trkpt lat="42.712742" lon="1.968415">
        <ele>2272.7</ele>
        <time>2013-04-24T13:05:34Z</time>
      </trkpt>
      <trkpt lat="42.712803" lon="1.968497">
        <ele>2273.2</ele>
        <time>2013-04-24T13:05:44Z</time>
      </trkpt>
      <trkpt lat="42.712869" lon="1.968585">
        <ele>2273.2</ele>
        <time>2013-04-24T13:05:52Z</time>
      </trkpt>
      <trkpt lat="42.712945" lon="1.968661">
        <ele>2270.8</ele>
        <time>2013-04-24T13:06:00Z</time>
      </trkpt>
      <trkpt lat="42.713022" lon="1.968754">
        <ele>2271.7</ele>
        <time>2013-04-24T13:06:09Z</time>
      </trkpt>
      <trkpt lat="42.713101" lon="1.968848">
        <ele>2272.2</ele>
        <time>2013-04-24T13:06:19Z</time>
      </trkpt>
      <trkpt lat="42.713163" lon="1.968954">
        <ele>2276.1</ele>
        <time>2013-04-24T13:06:32Z</time>
      </trkpt>
      <trkpt lat="42.713183" lon="1.969076">
        <ele>2278.9</ele>
        <time>2013-04-24T13:06:44Z</time>
      </trkpt>
      <trkpt lat="42.713239" lon="1.969149">
        <ele>2282.3</ele>
        <time>2013-04-24T13:06:57Z</time>
      </trkpt>
      <trkpt lat="42.713316" lon="1.969225">
        <ele>2286.6</ele>
        <time>2013-04-24T13:07:15Z</time>
      </trkpt>
      <trkpt lat="42.713340" lon="1.969333">
        <ele>2290.0</ele>
        <time>2013-04-24T13:07:33Z</time>
      </trkpt>
      <trkpt lat="42.713341" lon="1.969465">
        <ele>2292.9</ele>
        <time>2013-04-24T13:07:48Z</time>
      </trkpt>
      <trkpt lat="42.713391" lon="1.969547">
        <ele>2297.2</ele>
        <time>2013-04-24T13:08:07Z</time>
      </trkpt>
      <trkpt lat="42.713380" lon="1.969654">
        <ele>2301.5</ele>
        <time>2013-04-24T13:08:27Z</time>
      </trkpt>
      <trkpt lat="42.713383" lon="1.969774">
        <ele>2305.9</ele>
        <time>2013-04-24T13:08:54Z</time>
      </trkpt>
      <trkpt lat="42.713415" lon="1.969881">
        <ele>2310.7</ele>
        <time>2013-04-24T13:09:13Z</time>
      </trkpt>
      <trkpt lat="42.713435" lon="1.969976">
        <ele>2315.0</ele>
        <time>2013-04-24T13:09:32Z</time>
      </trkpt>
      <trkpt lat="42.713445" lon="1.970080">
        <ele>2319.3</ele>
        <time>2013-04-24T13:09:50Z</time>
      </trkpt>
      <trkpt lat="42.713423" lon="1.970182">
        <ele>2322.7</ele>
        <time>2013-04-24T13:10:10Z</time>
      </trkpt>
      <trkpt lat="42.713408" lon="1.970307">
        <ele>2329.4</ele>
        <time>2013-04-24T13:10:36Z</time>
      </trkpt>
      <trkpt lat="42.713374" lon="1.970396">
        <ele>2331.8</ele>
        <time>2013-04-24T13:11:11Z</time>
      </trkpt>
      <trkpt lat="42.713387" lon="1.970515">
        <ele>2335.7</ele>
        <time>2013-04-24T13:11:26Z</time>
      </trkpt>
      <trkpt lat="42.713362" lon="1.970615">
        <ele>2341.4</ele>
        <time>2013-04-24T13:11:45Z</time>
      </trkpt>
      <trkpt lat="42.713322" lon="1.970727">
        <ele>2345.8</ele>
        <time>2013-04-24T13:12:01Z</time>
      </trkpt>
      <trkpt lat="42.713271" lon="1.970852">
        <ele>2348.6</ele>
        <time>2013-04-24T13:12:15Z</time>
      </trkpt>
      <trkpt lat="42.713286" lon="1.970965">
        <ele>2352.5</ele>
        <time>2013-04-24T13:12:31Z</time>
      </trkpt>
      <trkpt lat="42.713345" lon="1.971076">
        <ele>2354.4</ele>
        <time>2013-04-24T13:13:04Z</time>
      </trkpt>
      <trkpt lat="42.713401" lon="1.971143">
        <ele>2356.8</ele>
        <time>2013-04-24T13:13:39Z</time>
      </trkpt>
      <trkpt lat="42.713493" lon="1.971089">
        <ele>2358.2</ele>
        <time>2013-04-24T13:14:01Z</time>
      </trkpt>
      <trkpt lat="42.713578" lon="1.971025">
        <ele>2359.2</ele>
        <time>2013-04-24T13:14:08Z</time>
      </trkpt>
      <trkpt lat="42.713655" lon="1.970945">
        <ele>2360.2</ele>
        <time>2013-04-24T13:14:15Z</time>
      </trkpt>
      <trkpt lat="42.713733" lon="1.970890">
        <ele>2362.1</ele>
        <time>2013-04-24T13:14:22Z</time>
      </trkpt>
      <trkpt lat="42.713821" lon="1.970820">
        <ele>2365.0</ele>
        <time>2013-04-24T13:14:32Z</time>
      </trkpt>
      <trkpt lat="42.713871" lon="1.970777">
        <ele>2364.0</ele>
        <time>2013-04-24T13:15:09Z</time>
      </trkpt>
      <trkpt lat="42.713870" lon="1.970775">
        <ele>2364.5</ele>
        <time>2013-04-24T13:24:02Z</time>
      </trkpt>
      <trkpt lat="42.713879" lon="1.970780">
        <ele>2365.9</ele>
        <time>2013-04-24T13:33:58Z</time>
      </trkpt>
      <trkpt lat="42.713967" lon="1.970807">
        <ele>2365.9</ele>
        <time>2013-04-24T13:34:37Z</time>
      </trkpt>
      <trkpt lat="42.714051" lon="1.970847">
        <ele>2365.0</ele>
        <time>2013-04-24T13:34:47Z</time>
      </trkpt>
      <trkpt lat="42.714095" lon="1.970764">
        <ele>2363.5</ele>
        <time>2013-04-24T13:34:57Z</time>
      </trkpt>
      <trkpt lat="42.714175" lon="1.970721">
        <ele>2359.7</ele>
        <time>2013-04-24T13:35:20Z</time>
      </trkpt>
      <trkpt lat="42.714261" lon="1.970671">
        <ele>2354.9</ele>
        <time>2013-04-24T13:35:32Z</time>
      </trkpt>
      <trkpt lat="42.714322" lon="1.970673">
        <ele>2352.0</ele>
        <time>2013-04-24T13:35:46Z</time>
      </trkpt>
      <trkpt lat="42.714392" lon="1.970624">
        <ele>2348.6</ele>
        <time>2013-04-24T13:36:00Z</time>
      </trkpt>
      <trkpt lat="42.714478" lon="1.970605">
        <ele>2344.8</ele>
        <time>2013-04-24T13:36:15Z</time>
      </trkpt>
      <trkpt lat="42.714563" lon="1.970564">
        <ele>2343.4</ele>
        <time>2013-04-24T13:36:27Z</time>
      </trkpt>
      <trkpt lat="42.714625" lon="1.970645">
        <ele>2340.9</ele>
        <time>2013-04-24T13:36:41Z</time>
      </trkpt>
      <trkpt lat="42.714708" lon="1.970699">
        <ele>2337.6</ele>
        <time>2013-04-24T13:36:54Z</time>
      </trkpt>
      <trkpt lat="42.714783" lon="1.970679">
        <ele>2334.2</ele>
        <time>2013-04-24T13:37:09Z</time>
      </trkpt>
      <trkpt lat="42.714842" lon="1.970598">
        <ele>2330.9</ele>
        <time>2013-04-24T13:37:39Z</time>
      </trkpt>
      <trkpt lat="42.714928" lon="1.970596">
        <ele>2327.0</ele>
        <time>2013-04-24T13:37:52Z</time>
      </trkpt>
      <trkpt lat="42.715003" lon="1.970577">
        <ele>2323.6</ele>
        <time>2013-04-24T13:38:05Z</time>
      </trkpt>
      <trkpt lat="42.715086" lon="1.970531">
        <ele>2320.8</ele>
        <time>2013-04-24T13:38:24Z</time>
      </trkpt>
      <trkpt lat="42.715170" lon="1.970495">
        <ele>2319.3</ele>
        <time>2013-04-24T13:38:33Z</time>
      </trkpt>
      <trkpt lat="42.715253" lon="1.970433">
        <ele>2316.4</ele>
        <time>2013-04-24T13:38:43Z</time>
      </trkpt>
      <trkpt lat="42.715321" lon="1.970391">
        <ele>2314.5</ele>
        <time>2013-04-24T13:38:53Z</time>
      </trkpt>
      <trkpt lat="42.715418" lon="1.970398">
        <ele>2311.6</ele>
        <time>2013-04-24T13:39:03Z</time>
      </trkpt>
      <trkpt lat="42.715513" lon="1.970438">
        <ele>2309.2</ele>
        <time>2013-04-24T13:39:12Z</time>
      </trkpt>
      <trkpt lat="42.715601" lon="1.970471">
        <ele>2306.3</ele>
        <time>2013-04-24T13:39:37Z</time>
      </trkpt>
      <trkpt lat="42.715685" lon="1.970537">
        <ele>2304.4</ele>
        <time>2013-04-24T13:39:47Z</time>
      </trkpt>
      <trkpt lat="42.715782" lon="1.970579">
        <ele>2301.1</ele>
        <time>2013-04-24T13:39:59Z</time>
      </trkpt>
      <trkpt lat="42.715876" lon="1.970604">
        <ele>2300.1</ele>
        <time>2013-04-24T13:40:08Z</time>
      </trkpt>
      <trkpt lat="42.715963" lon="1.970646">
        <ele>2297.7</ele>
        <time>2013-04-24T13:40:18Z</time>
      </trkpt>
      <trkpt lat="42.716031" lon="1.970742">
        <ele>2294.3</ele>
        <time>2013-04-24T13:40:29Z</time>
      </trkpt>
      <trkpt lat="42.716114" lon="1.970812">
        <ele>2292.9</ele>
        <time>2013-04-24T13:40:37Z</time>
      </trkpt>
      <trkpt lat="42.716191" lon="1.970878">
        <ele>2291.0</ele>
        <time>2013-04-24T13:40:47Z</time>
      </trkpt>
      <trkpt lat="42.716294" lon="1.970921">
        <ele>2290.0</ele>
        <time>2013-04-24T13:40:57Z</time>
      </trkpt>
      <trkpt lat="42.716349" lon="1.971002">
        <ele>2289.0</ele>
        <time>2013-04-24T13:41:06Z</time>
      </trkpt>
      <trkpt lat="42.716414" lon="1.971092">
        <ele>2287.6</ele>
        <time>2013-04-24T13:41:16Z</time>
      </trkpt>
      <trkpt lat="42.716482" lon="1.971154">
        <ele>2287.1</ele>
        <time>2013-04-24T13:41:26Z</time>
      </trkpt>
      <trkpt lat="42.716559" lon="1.971229">
        <ele>2286.1</ele>
        <time>2013-04-24T13:41:35Z</time>
      </trkpt>
      <trkpt lat="42.716650" lon="1.971290">
        <ele>2285.7</ele>
        <time>2013-04-24T13:41:45Z</time>
      </trkpt>
      <trkpt lat="42.716681" lon="1.971392">
        <ele>2286.1</ele>
        <time>2013-04-24T13:42:40Z</time>
      </trkpt>
      <trkpt lat="42.716738" lon="1.971490">
        <ele>2284.2</ele>
        <time>2013-04-24T13:43:11Z</time>
      </trkpt>
      <trkpt lat="42.716826" lon="1.971560">
        <ele>2281.8</ele>
        <time>2013-04-24T13:43:20Z</time>
      </trkpt>
      <trkpt lat="42.716919" lon="1.971626">
        <ele>2278.9</ele>
        <time>2013-04-24T13:43:28Z</time>
      </trkpt>
      <trkpt lat="42.716980" lon="1.971693">
        <ele>2277.5</ele>
        <time>2013-04-24T13:43:43Z</time>
      </trkpt>
      <trkpt lat="42.717047" lon="1.971757">
        <ele>2276.1</ele>
        <time>2013-04-24T13:43:53Z</time>
      </trkpt>
      <trkpt lat="42.717122" lon="1.971796">
        <ele>2275.6</ele>
        <time>2013-04-24T13:44:02Z</time>
      </trkpt>
      <trkpt lat="42.717189" lon="1.971880">
        <ele>2273.2</ele>
        <time>2013-04-24T13:44:11Z</time>
      </trkpt>
      <trkpt lat="42.717248" lon="1.971986">
        <ele>2270.3</ele>
        <time>2013-04-24T13:44:21Z</time>
      </trkpt>
      <trkpt lat="42.717327" lon="1.972071">
        <ele>2266.9</ele>
        <time>2013-04-24T13:44:29Z</time>
      </trkpt>
      <trkpt lat="42.717410" lon="1.972152">
        <ele>2260.7</ele>
        <time>2013-04-24T13:44:37Z</time>
      </trkpt>
      <trkpt lat="42.717483" lon="1.972227">
        <ele>2259.7</ele>
        <time>2013-04-24T13:44:44Z</time>
      </trkpt>
      <trkpt lat="42.717564" lon="1.972303">
        <ele>2256.8</ele>
        <time>2013-04-24T13:44:50Z</time>
      </trkpt>
      <trkpt lat="42.717641" lon="1.972382">
        <ele>2254.9</ele>
        <time>2013-04-24T13:44:57Z</time>
      </trkpt>
      <trkpt lat="42.717710" lon="1.972473">
        <ele>2253.0</ele>
        <time>2013-04-24T13:45:04Z</time>
      </trkpt>
      <trkpt lat="42.717770" lon="1.972571">
        <ele>2251.1</ele>
        <time>2013-04-24T13:45:12Z</time>
      </trkpt>
      <trkpt lat="42.717798" lon="1.972672">
        <ele>2249.6</ele>
        <time>2013-04-24T13:45:19Z</time>
      </trkpt>
      <trkpt lat="42.717848" lon="1.972758">
        <ele>2247.2</ele>
        <time>2013-04-24T13:45:26Z</time>
      </trkpt>
      <trkpt lat="42.717899" lon="1.972860">
        <ele>2245.8</ele>
        <time>2013-04-24T13:45:33Z</time>
      </trkpt>
      <trkpt lat="42.717973" lon="1.972955">
        <ele>2244.8</ele>
        <time>2013-04-24T13:45:41Z</time>
      </trkpt>
      <trkpt lat="42.718034" lon="1.973063">
        <ele>2242.9</ele>
        <time>2013-04-24T13:45:49Z</time>
      </trkpt>
      <trkpt lat="42.718084" lon="1.973158">
        <ele>2239.5</ele>
        <time>2013-04-24T13:45:57Z</time>
      </trkpt>
      <trkpt lat="42.718141" lon="1.973272">
        <ele>2237.1</ele>
        <time>2013-04-24T13:46:34Z</time>
      </trkpt>
      <trkpt lat="42.718208" lon="1.973374">
        <ele>2233.8</ele>
        <time>2013-04-24T13:46:42Z</time>
      </trkpt>
      <trkpt lat="42.718271" lon="1.973473">
        <ele>2229.4</ele>
        <time>2013-04-24T13:46:50Z</time>
      </trkpt>
      <trkpt lat="42.718327" lon="1.973577">
        <ele>2227.0</ele>
        <time>2013-04-24T13:46:58Z</time>
      </trkpt>
      <trkpt lat="42.718389" lon="1.973684">
        <ele>2222.7</ele>
        <time>2013-04-24T13:47:07Z</time>
      </trkpt>
      <trkpt lat="42.718450" lon="1.973777">
        <ele>2220.8</ele>
        <time>2013-04-24T13:47:16Z</time>
      </trkpt>
      <trkpt lat="42.718497" lon="1.973881">
        <ele>2216.9</ele>
        <time>2013-04-24T13:47:27Z</time>
      </trkpt>
      <trkpt lat="42.718554" lon="1.973980">
        <ele>2213.6</ele>
        <time>2013-04-24T13:47:37Z</time>
      </trkpt>
      <trkpt lat="42.718626" lon="1.974055">
        <ele>2212.1</ele>
        <time>2013-04-24T13:47:55Z</time>
      </trkpt>
      <trkpt lat="42.718694" lon="1.974114">
        <ele>2210.7</ele>
        <time>2013-04-24T13:48:02Z</time>
      </trkpt>
      <trkpt lat="42.718760" lon="1.974185">
        <ele>2205.9</ele>
        <time>2013-04-24T13:48:11Z</time>
      </trkpt>
      <trkpt lat="42.718839" lon="1.974290">
        <ele>2203.0</ele>
        <time>2013-04-24T13:48:20Z</time>
      </trkpt>
      <trkpt lat="42.718897" lon="1.974399">
        <ele>2202.0</ele>
        <time>2013-04-24T13:48:29Z</time>
      </trkpt>
      <trkpt lat="42.718972" lon="1.974494">
        <ele>2197.2</ele>
        <time>2013-04-24T13:48:38Z</time>
      </trkpt>
      <trkpt lat="42.719028" lon="1.974583">
        <ele>2194.4</ele>
        <time>2013-04-24T13:48:46Z</time>
      </trkpt>
      <trkpt lat="42.719067" lon="1.974716">
        <ele>2191.9</ele>
        <time>2013-04-24T13:48:53Z</time>
      </trkpt>
      <trkpt lat="42.719135" lon="1.974794">
        <ele>2189.1</ele>
        <time>2013-04-24T13:49:02Z</time>
      </trkpt>
      <trkpt lat="42.719196" lon="1.974855">
        <ele>2186.7</ele>
        <time>2013-04-24T13:49:10Z</time>
      </trkpt>
      <trkpt lat="42.719334" lon="1.975060">
        <ele>2145.6</ele>
        <time>2013-04-24T13:49:23Z</time>
      </trkpt>
      <trkpt lat="42.719517" lon="1.975159">
        <ele>2140.8</ele>
        <time>2013-04-24T13:49:32Z</time>
      </trkpt>
      <trkpt lat="42.719676" lon="1.975276">
        <ele>2137.2</ele>
        <time>2013-04-24T13:49:42Z</time>
      </trkpt>
      <trkpt lat="42.719846" lon="1.975384">
        <ele>2133.1</ele>
        <time>2013-04-24T13:50:37Z</time>
      </trkpt>
      <trkpt lat="42.720005" lon="1.975533">
        <ele>2130.7</ele>
        <time>2013-04-24T13:50:49Z</time>
      </trkpt>
      <trkpt lat="42.720385" lon="1.975919">
        <ele>2124.7</ele>
        <time>2013-04-24T13:56:43Z</time>
      </trkpt>
      <trkpt lat="42.720823" lon="1.976346">
        <ele>2115.7</ele>
        <time>2013-04-24T13:57:06Z</time>
      </trkpt>
      <trkpt lat="42.721195" lon="1.976541">
        <ele>2105.2</ele>
        <time>2013-04-24T13:57:18Z</time>
      </trkpt>
      <trkpt lat="42.721604" lon="1.976697">
        <ele>2093.5</ele>
        <time>2013-04-24T13:57:30Z</time>
      </trkpt>
      <trkpt lat="42.721795" lon="1.977021">
        <ele>2090.9</ele>
        <time>2013-04-24T13:57:42Z</time>
      </trkpt>
      <trkpt lat="42.722004" lon="1.977370">
        <ele>2088.9</ele>
        <time>2013-04-24T13:57:56Z</time>
      </trkpt>
      <trkpt lat="42.722185" lon="1.977682">
        <ele>2086.4</ele>
        <time>2013-04-24T13:58:07Z</time>
      </trkpt>
      <trkpt lat="42.722414" lon="1.978083">
        <ele>2083.3</ele>
        <time>2013-04-24T13:58:20Z</time>
      </trkpt>
      <trkpt lat="42.722747" lon="1.978356">
        <ele>2079.0</ele>
        <time>2013-04-24T14:00:38Z</time>
      </trkpt>
      <trkpt lat="42.723042" lon="1.978498">
        <ele>2074.7</ele>
        <time>2013-04-24T14:00:48Z</time>
      </trkpt>
      <trkpt lat="42.723528" lon="1.978459">
        <ele>2063.9</ele>
        <time>2013-04-24T14:00:59Z</time>
      </trkpt>
      <trkpt lat="42.723957" lon="1.978343">
        <ele>2051.2</ele>
        <time>2013-04-24T14:01:11Z</time>
      </trkpt>
      <trkpt lat="42.724290" lon="1.978109">
        <ele>2033.6</ele>
        <time>2013-04-24T14:01:22Z</time>
      </trkpt>
      <trkpt lat="42.724557" lon="1.977837">
        <ele>2015.9</ele>
        <time>2013-04-24T14:01:33Z</time>
      </trkpt>
      <trkpt lat="42.725042" lon="1.977889">
        <ele>1998.0</ele>
        <time>2013-04-24T14:01:44Z</time>
      </trkpt>
      <trkpt lat="42.725439" lon="1.978144">
        <ele>1987.2</ele>
        <time>2013-04-24T14:10:55Z</time>
      </trkpt>
      <trkpt lat="42.725724" lon="1.978581">
        <ele>1982.6</ele>
        <time>2013-04-24T14:11:03Z</time>
      </trkpt>
      <trkpt lat="42.726248" lon="1.978970">
        <ele>1972.4</ele>
        <time>2013-04-24T14:11:35Z</time>
      </trkpt>
      <trkpt lat="42.726712" lon="1.979407">
        <ele>1967.0</ele>
        <time>2013-04-24T14:13:03Z</time>
      </trkpt>
      <trkpt lat="42.727390" lon="1.979682">
        <ele>1951.2</ele>
        <time>2013-04-24T14:13:10Z</time>
      </trkpt>
      <trkpt lat="42.727853" lon="1.979860">
        <ele>1934.7</ele>
        <time>2013-04-24T14:13:19Z</time>
      </trkpt>
      <trkpt lat="42.728400" lon="1.979957">
        <ele>1910.9</ele>
        <time>2013-04-24T14:13:28Z</time>
      </trkpt>
      <trkpt lat="42.728995" lon="1.979828">
        <ele>1879.5</ele>
        <time>2013-04-24T14:13:36Z</time>
      </trkpt>
      <trkpt lat="42.729590" lon="1.979553">
        <ele>1845.9</ele>
        <time>2013-04-24T14:15:35Z</time>
      </trkpt>
      <trkpt lat="42.730161" lon="1.978840">
        <ele>1818.1</ele>
        <time>2013-04-24T14:15:47Z</time>
      </trkpt>
      <trkpt lat="42.730256" lon="1.978047">
        <ele>1814.3</ele>
        <time>2013-04-24T14:15:55Z</time>
      </trkpt>
      <trkpt lat="42.730327" lon="1.977302">
        <ele>1818.1</ele>
        <time>2013-04-24T14:16:03Z</time>
      </trkpt>
      <trkpt lat="42.730565" lon="1.976703">
        <ele>1837.1</ele>
        <time>2013-04-24T14:16:12Z</time>
      </trkpt>
      <trkpt lat="42.730577" lon="1.976266">
        <ele>1843.2</ele>
        <time>2013-04-24T14:16:20Z</time>
      </trkpt>
      <trkpt lat="42.730434" lon="1.975375">
        <ele>1843.2</ele>
        <time>2013-04-24T14:16:29Z</time>
      </trkpt>
      <trkpt lat="42.730387" lon="1.974371">
        <ele>1843.4</ele>
        <time>2013-04-24T14:16:44Z</time>
      </trkpt>
      <trkpt lat="42.730113" lon="1.973367">
        <ele>1826.8</ele>
        <time>2013-04-24T14:16:52Z</time>
      </trkpt>
      <trkpt lat="42.729816" lon="1.972137">
        <ele>1807.5</ele>
        <time>2013-04-24T14:17:01Z</time>
      </trkpt>
      <trkpt lat="42.729840" lon="1.971667">
        <ele>1805.7</ele>
        <time>2013-04-24T14:17:09Z</time>
      </trkpt>
      <trkpt lat="42.729388" lon="1.970502">
        <ele>1793.8</ele>
        <time>2013-04-24T14:17:17Z</time>
      </trkpt>
      <trkpt lat="42.728948" lon="1.969514">
        <ele>1787.8</ele>
        <time>2013-04-24T14:17:24Z</time>
      </trkpt>
      <trkpt lat="42.728569" lon="1.968479">
        <ele>1777.7</ele>
        <time>2013-04-24T14:17:31Z</time>
      </trkpt>
      <trkpt lat="42.728227" lon="1.967671">
        <ele>1766.0</ele>
        <time>2013-04-24T14:21:04Z</time>
      </trkpt>
      <trkpt lat="42.727976" lon="1.966895">
        <ele>1757.3</ele>
        <time>2013-04-24T14:21:13Z</time>
      </trkpt>
      <trkpt lat="42.727830" lon="1.966500">
        <ele>1752.3</ele>
        <time>2013-04-24T14:21:21Z</time>
      </trkpt>
      <trkpt lat="42.727771" lon="1.966309">
        <ele>1750.7</ele>
        <time>2013-04-24T14:21:29Z</time>
      </trkpt>
      <trkpt lat="42.727696" lon="1.966114">
        <ele>1748.6</ele>
        <time>2013-04-24T14:21:38Z</time>
      </trkpt>
      <trkpt lat="42.727497" lon="1.965580">
        <ele>1741.2</ele>
        <time>2013-04-24T14:22:26Z</time>
      </trkpt>
      <trkpt lat="42.727404" lon="1.965373">
        <ele>1736.3</ele>
        <time>2013-04-24T14:22:33Z</time>
      </trkpt>
      <trkpt lat="42.727301" lon="1.965241">
        <ele>1731.1</ele>
        <time>2013-04-24T14:22:40Z</time>
      </trkpt>
      <trkpt lat="42.727223" lon="1.965169">
        <ele>1727.3</ele>
        <time>2013-04-24T14:22:47Z</time>
      </trkpt>
      <trkpt lat="42.727186" lon="1.965085">
        <ele>1725.5</ele>
        <time>2013-04-24T14:22:54Z</time>
      </trkpt>
      <trkpt lat="42.727183" lon="1.965034">
        <ele>1725.2</ele>
        <time>2013-04-24T14:23:01Z</time>
      </trkpt>
      <trkpt lat="42.727149" lon="1.964852">
        <ele>1702.2</ele>
        <time>2013-04-24T14:23:17Z</time>
      </trkpt>
      <trkpt lat="42.727117" lon="1.964716">
        <ele>1701.2</ele>
        <time>2013-04-24T14:23:24Z</time>
      </trkpt>
    </trkseg>
  </trk>
</gpx>

